<?xml version='1.0' encoding='UTF-8'?><gpx version="1.1" creator="JPX - https://github.com/jenetics/jpx" xmlns="http://www.topografix.com/GPX/1/1"><trk><trkseg><trkpt lat="-34.09275707001937" lon="-71.95075466637815"><ele>128.0</ele><time>2026-03-31T14:35:22Z</time></trkpt><trkpt lat="-34.0927947195489" lon="-71.95081817080357"><ele>127.99999999999999</ele><time>2026-03-31T14:35:27.999Z</time></trkpt><trkpt lat="-34.092837276603134" lon="-71.95088878662986"><ele>128.0</ele><time>2026-03-31T14:35:34.999Z</time></trkpt><trkpt lat="-34.09288534110339" lon="-71.9509556113042"><ele>128.0</ele><time>2026-03-31T14:35:40.999Z</time></trkpt><trkpt lat="-34.09291920916476" lon="-71.95102628847557"><ele>127.99999999999999</ele><time>2026-03-31T14:35:45.999Z</time></trkpt><trkpt lat="-34.0929734397988" lon="-71.95107676756734"><ele>128.0</ele><time>2026-03-31T14:35:49.999Z</time></trkpt><trkpt lat="-34.09303083495393" lon="-71.95112610877533"><ele>128.0</ele><time>2026-03-31T14:35:52.999Z</time></trkpt><trkpt lat="-34.093073777542465" lon="-71.95118260728611"><ele>128.16666666666666</ele><time>2026-03-31T14:35:55.999Z</time></trkpt><trkpt lat="-34.09317001742943" lon="-71.95123094601298"><ele>128.33333333333331</ele><time>2026-03-31T14:35:57.999Z</time></trkpt><trkpt lat="-34.093246770973685" lon="-71.95127855126877"><ele>128.5</ele><time>2026-03-31T14:36:01.999Z</time></trkpt><trkpt lat="-34.09331260109401" lon="-71.95132409340476"><ele>128.66666666666666</ele><time>2026-03-31T14:36:04Z</time></trkpt><trkpt lat="-34.09339914183793" lon="-71.95136963591659"><ele>128.83333333333334</ele><time>2026-03-31T14:36:07Z</time></trkpt><trkpt lat="-34.09345162676641" lon="-71.95142502240765"><ele>129.0</ele><time>2026-03-31T14:36:10Z</time></trkpt><trkpt lat="-34.09351325391716" lon="-71.95148294289643"><ele>128.99999999999997</ele><time>2026-03-31T14:36:13Z</time></trkpt><trkpt lat="-34.093573621547336" lon="-71.9515364655965"><ele>129.0</ele><time>2026-03-31T14:36:16Z</time></trkpt><trkpt lat="-34.09363030244659" lon="-71.95160780919362"><ele>129.0</ele><time>2026-03-31T14:36:20Z</time></trkpt><trkpt lat="-34.093687654362384" lon="-71.95167416276396"><ele>129.0</ele><time>2026-03-31T14:36:24Z</time></trkpt><trkpt lat="-34.093752877390315" lon="-71.95172102256653"><ele>129.0</ele><time>2026-03-31T14:36:27Z</time></trkpt><trkpt lat="-34.0938064868372" lon="-71.95176991098924"><ele>128.99999999999997</ele><time>2026-03-31T14:36:30Z</time></trkpt><trkpt lat="-34.093854010033915" lon="-71.9518237144446"><ele>129.0</ele><time>2026-03-31T14:36:33Z</time></trkpt><trkpt lat="-34.09390156430366" lon="-71.95188560554983"><ele>129.28571428571428</ele><time>2026-03-31T14:36:36Z</time></trkpt><trkpt lat="-34.0939414530829" lon="-71.95194908261462"><ele>129.57142857142856</ele><time>2026-03-31T14:36:39Z</time></trkpt><trkpt lat="-34.093979813199425" lon="-71.95201768653853"><ele>129.85714285714286</ele><time>2026-03-31T14:36:42Z</time></trkpt><trkpt lat="-34.09401697211024" lon="-71.95209466608823"><ele>130.14285714285714</ele><time>2026-03-31T14:36:45Z</time></trkpt><trkpt lat="-34.094056630756064" lon="-71.95217038344259"><ele>130.42857142857144</ele><time>2026-03-31T14:36:48Z</time></trkpt><trkpt lat="-34.094079809783324" lon="-71.95225149967943"><ele>130.71428571428572</ele><time>2026-03-31T14:36:51Z</time></trkpt><trkpt lat="-34.09415603017389" lon="-71.95230294421519"><ele>131.0</ele><time>2026-03-31T14:36:54Z</time></trkpt><trkpt lat="-34.09418904892413" lon="-71.95238746389596"><ele>132.5</ele><time>2026-03-31T14:36:57Z</time></trkpt><trkpt lat="-34.0942023619352" lon="-71.95246905934448"><ele>134.0</ele><time>2026-03-31T14:37:00Z</time></trkpt><trkpt lat="-34.09418873549845" lon="-71.95255779987886"><ele>135.5</ele><time>2026-03-31T14:37:03Z</time></trkpt><trkpt lat="-34.094187145987" lon="-71.95265470562612"><ele>137.0</ele><time>2026-03-31T14:37:06Z</time></trkpt><trkpt lat="-34.09417480010282" lon="-71.95273151767995"><ele>138.5</ele><time>2026-03-31T14:37:09Z</time></trkpt><trkpt lat="-34.094182791551454" lon="-71.95282698236952"><ele>140.0</ele><time>2026-03-31T14:37:12Z</time></trkpt><trkpt lat="-34.09417457790824" lon="-71.95292613829231"><ele>140.0</ele><time>2026-03-31T14:37:15Z</time></trkpt><trkpt lat="-34.09415775085903" lon="-71.95300551114985"><ele>140.0</ele><time>2026-03-31T14:37:18Z</time></trkpt><trkpt lat="-34.09413119920801" lon="-71.95308705275825"><ele>140.0</ele><time>2026-03-31T14:37:21Z</time></trkpt><trkpt lat="-34.09409532732504" lon="-71.95316857669383"><ele>140.0</ele><time>2026-03-31T14:37:24Z</time></trkpt><trkpt lat="-34.094058036620815" lon="-71.95325091968833"><ele>140.0</ele><time>2026-03-31T14:37:27Z</time></trkpt><trkpt lat="-34.09402624577196" lon="-71.9533254929282"><ele>140.0</ele><time>2026-03-31T14:37:30Z</time></trkpt><trkpt lat="-34.09399893998522" lon="-71.95342836488149"><ele>137.66666666666666</ele><time>2026-03-31T14:37:33Z</time></trkpt><trkpt lat="-34.09396135225768" lon="-71.95351406189387"><ele>135.33333333333331</ele><time>2026-03-31T14:37:36Z</time></trkpt><trkpt lat="-34.09395510666357" lon="-71.95364112845544"><ele>133.0</ele><time>2026-03-31T14:37:39Z</time></trkpt><trkpt lat="-34.0939361915563" lon="-71.953724579577"><ele>130.66666666666666</ele><time>2026-03-31T14:37:42Z</time></trkpt><trkpt lat="-34.09389146229947" lon="-71.9537805482821"><ele>128.33333333333334</ele><time>2026-03-31T14:37:45Z</time></trkpt><trkpt lat="-34.09390246699826" lon="-71.95387639949305"><ele>126.0</ele><time>2026-03-31T14:37:48Z</time></trkpt><trkpt lat="-34.09392944268123" lon="-71.95396735708671"><ele>126.0</ele><time>2026-03-31T14:37:50Z</time></trkpt><trkpt lat="-34.09392791729736" lon="-71.95404609261834"><ele>126.0</ele><time>2026-03-31T14:37:53Z</time></trkpt><trkpt lat="-34.093872878209595" lon="-71.95410643750188"><ele>126.0</ele><time>2026-03-31T14:37:56Z</time></trkpt><trkpt lat="-34.093861078400884" lon="-71.9542067920072"><ele>126.0</ele><time>2026-03-31T14:37:59Z</time></trkpt><trkpt lat="-34.09385004891452" lon="-71.95431290614722"><ele>126.0</ele><time>2026-03-31T14:38:02Z</time></trkpt><trkpt lat="-34.09383819198377" lon="-71.95440020773714"><ele>126.0</ele><time>2026-03-31T14:38:04Z</time></trkpt><trkpt lat="-34.09379578637015" lon="-71.95449976389561"><ele>125.57142857142857</ele><time>2026-03-31T14:38:07Z</time></trkpt><trkpt lat="-34.093774397632735" lon="-71.95460117827538"><ele>125.14285714285714</ele><time>2026-03-31T14:38:10Z</time></trkpt><trkpt lat="-34.093762642784476" lon="-71.95467809286887"><ele>124.71428571428572</ele><time>2026-03-31T14:38:12Z</time></trkpt><trkpt lat="-34.093733994580624" lon="-71.95475552822246"><ele>124.28571428571429</ele><time>2026-03-31T14:38:15Z</time></trkpt><trkpt lat="-34.09369487626659" lon="-71.95483423477677"><ele>123.85714285714286</ele><time>2026-03-31T14:38:18Z</time></trkpt><trkpt lat="-34.09364591875427" lon="-71.95491130090548"><ele>123.42857142857144</ele><time>2026-03-31T14:38:21Z</time></trkpt><trkpt lat="-34.09359308281236" lon="-71.95495850361735"><ele>123.00000000000001</ele><time>2026-03-31T14:38:26Z</time></trkpt><trkpt lat="-34.09358451881503" lon="-71.9550431025849"><ele>123.0</ele><time>2026-03-31T14:38:29Z</time></trkpt><trkpt lat="-34.09363826102613" lon="-71.95512899875179"><ele>123.0</ele><time>2026-03-31T14:38:33Z</time></trkpt><trkpt lat="-34.093621481072304" lon="-71.95524292670663"><ele>123.0</ele><time>2026-03-31T14:38:40Z</time></trkpt><trkpt lat="-34.093617185696644" lon="-71.9553495974523"><ele>123.0</ele><time>2026-03-31T14:38:43Z</time></trkpt><trkpt lat="-34.09360247474383" lon="-71.95542484179077"><ele>123.0</ele><time>2026-03-31T14:38:53Z</time></trkpt><trkpt lat="-34.09358310595206" lon="-71.95552964504911"><ele>123.0</ele><time>2026-03-31T14:38:58Z</time></trkpt><trkpt lat="-34.093629651563916" lon="-71.95558192979568"><ele>123.0</ele><time>2026-03-31T14:39:08Z</time></trkpt><trkpt lat="-34.09369500790513" lon="-71.95554155790126"><ele>123.0</ele><time>2026-03-31T14:39:14Z</time></trkpt><trkpt lat="-34.09375989597386" lon="-71.95550576239053"><ele>123.0</ele><time>2026-03-31T14:39:18Z</time></trkpt><trkpt lat="-34.093833731988326" lon="-71.95548369583949"><ele>123.0</ele><time>2026-03-31T14:39:42Z</time></trkpt><trkpt lat="-34.09391192789862" lon="-71.9554574350551"><ele>123.0</ele><time>2026-03-31T14:39:45Z</time></trkpt><trkpt lat="-34.093980034692244" lon="-71.9555142002626"><ele>123.0</ele><time>2026-03-31T14:39:49Z</time></trkpt><trkpt lat="-34.09406214764934" lon="-71.9555216162263"><ele>123.16666666666667</ele><time>2026-03-31T14:39:52Z</time></trkpt><trkpt lat="-34.09414713138453" lon="-71.95552691454107"><ele>123.33333333333334</ele><time>2026-03-31T14:39:56Z</time></trkpt><trkpt lat="-34.09422136495451" lon="-71.95555345794303"><ele>123.5</ele><time>2026-03-31T14:39:59Z</time></trkpt><trkpt lat="-34.09429445476139" lon="-71.95554793584975"><ele>123.66666666666667</ele><time>2026-03-31T14:40:01Z</time></trkpt><trkpt lat="-34.09436595020638" lon="-71.95553818497376"><ele>123.83333333333334</ele><time>2026-03-31T14:40:04Z</time></trkpt><trkpt lat="-34.094440457008815" lon="-71.95554005838265"><ele>124.0</ele><time>2026-03-31T14:40:07Z</time></trkpt><trkpt lat="-34.094517538412994" lon="-71.95556183817328"><ele>124.00000000000001</ele><time>2026-03-31T14:40:10Z</time></trkpt><trkpt lat="-34.09458963505258" lon="-71.95560709998944"><ele>124.0</ele><time>2026-03-31T14:40:13Z</time></trkpt><trkpt lat="-34.09465159189374" lon="-71.95563496820586"><ele>124.0</ele><time>2026-03-31T14:40:15Z</time></trkpt><trkpt lat="-34.094729861256916" lon="-71.9556913336426"><ele>124.0</ele><time>2026-03-31T14:40:18Z</time></trkpt><trkpt lat="-34.09481586494932" lon="-71.95571053400245"><ele>124.00000000000001</ele><time>2026-03-31T14:40:21Z</time></trkpt><trkpt lat="-34.09488820434814" lon="-71.95576086113931"><ele>124.0</ele><time>2026-03-31T14:40:24Z</time></trkpt><trkpt lat="-34.09493146313213" lon="-71.95582597860965"><ele>125.00000000000001</ele><time>2026-03-31T14:40:26Z</time></trkpt><trkpt lat="-34.09500768298603" lon="-71.95585753320648"><ele>126.0</ele><time>2026-03-31T14:40:29Z</time></trkpt><trkpt lat="-34.095081142891914" lon="-71.95586772159288"><ele>127.0</ele><time>2026-03-31T14:40:31Z</time></trkpt><trkpt lat="-34.095154437543705" lon="-71.95591162670883"><ele>128.0</ele><time>2026-03-31T14:40:34Z</time></trkpt><trkpt lat="-34.095232200055214" lon="-71.95594524092266"><ele>129.0</ele><time>2026-03-31T14:40:37Z</time></trkpt><trkpt lat="-34.09529569124547" lon="-71.9560206421128"><ele>130.0</ele><time>2026-03-31T14:40:41Z</time></trkpt><trkpt lat="-34.09535898235549" lon="-71.956018025401"><ele>130.0</ele><time>2026-03-31T14:40:43Z</time></trkpt><trkpt lat="-34.09544503899767" lon="-71.9560364017774"><ele>130.0</ele><time>2026-03-31T14:40:46Z</time></trkpt><trkpt lat="-34.095507686203376" lon="-71.95606194535212"><ele>130.0</ele><time>2026-03-31T14:40:49Z</time></trkpt><trkpt lat="-34.0955918277255" lon="-71.95609658923823"><ele>130.0</ele><time>2026-03-31T14:40:52Z</time></trkpt><trkpt lat="-34.09566713435006" lon="-71.95613354213702"><ele>130.0</ele><time>2026-03-31T14:40:55Z</time></trkpt><trkpt lat="-34.09573251507927" lon="-71.95617236909436"><ele>130.0</ele><time>2026-03-31T14:40:57Z</time></trkpt><trkpt lat="-34.09581112186687" lon="-71.95615057374442"><ele>127.66666666666667</ele><time>2026-03-31T14:41:00Z</time></trkpt><trkpt lat="-34.09586253281489" lon="-71.95622256023067"><ele>125.33333333333334</ele><time>2026-03-31T14:41:02Z</time></trkpt><trkpt lat="-34.09592450873563" lon="-71.95626794075402"><ele>123.0</ele><time>2026-03-31T14:41:04Z</time></trkpt><trkpt lat="-34.09596723655631" lon="-71.95633877556482"><ele>120.66666666666666</ele><time>2026-03-31T14:41:07Z</time></trkpt><trkpt lat="-34.09601018121949" lon="-71.95642521341823"><ele>118.33333333333333</ele><time>2026-03-31T14:41:10Z</time></trkpt><trkpt lat="-34.096050962946954" lon="-71.95650292517986"><ele>116.0</ele><time>2026-03-31T14:41:13Z</time></trkpt><trkpt lat="-34.096088223568024" lon="-71.95659279588425"><ele>115.99999999999999</ele><time>2026-03-31T14:41:16Z</time></trkpt><trkpt lat="-34.096160850876785" lon="-71.95666605961546"><ele>116.0</ele><time>2026-03-31T14:41:19Z</time></trkpt><trkpt lat="-34.09623097948184" lon="-71.9567138770264"><ele>116.0</ele><time>2026-03-31T14:41:22Z</time></trkpt><trkpt lat="-34.096280497821425" lon="-71.95677476190357"><ele>116.0</ele><time>2026-03-31T14:41:25Z</time></trkpt><trkpt lat="-34.096332899850694" lon="-71.95683250266516"><ele>115.99999999999999</ele><time>2026-03-31T14:41:28Z</time></trkpt><trkpt lat="-34.09640376077195" lon="-71.9569014211084"><ele>116.0</ele><time>2026-03-31T14:41:31Z</time></trkpt><trkpt lat="-34.096464801335316" lon="-71.95695557841883"><ele>117.99999999999999</ele><time>2026-03-31T14:41:34Z</time></trkpt><trkpt lat="-34.09651649211479" lon="-71.95700148239916"><ele>120.0</ele><time>2026-03-31T14:41:37Z</time></trkpt><trkpt lat="-34.09659909355357" lon="-71.95703925486484"><ele>122.0</ele><time>2026-03-31T14:41:40Z</time></trkpt><trkpt lat="-34.0966644048097" lon="-71.95704711870866"><ele>124.0</ele><time>2026-03-31T14:41:43Z</time></trkpt><trkpt lat="-34.09673951232579" lon="-71.95702844981635"><ele>125.99999999999999</ele><time>2026-03-31T14:41:46.001Z</time></trkpt><trkpt lat="-34.09681674514374" lon="-71.95701211449494"><ele>128.0</ele><time>2026-03-31T14:41:49.001Z</time></trkpt><trkpt lat="-34.096891244930625" lon="-71.95698280082205"><ele>127.99999999999999</ele><time>2026-03-31T14:41:52.001Z</time></trkpt><trkpt lat="-34.09696753540954" lon="-71.9569522259462"><ele>128.0</ele><time>2026-03-31T14:41:55.001Z</time></trkpt><trkpt lat="-34.09704249133033" lon="-71.95690261711087"><ele>128.0</ele><time>2026-03-31T14:41:58.001Z</time></trkpt><trkpt lat="-34.09712134397603" lon="-71.95688663879332"><ele>128.0</ele><time>2026-03-31T14:42:01.001Z</time></trkpt><trkpt lat="-34.09717258236328" lon="-71.95682600830317"><ele>127.99999999999999</ele><time>2026-03-31T14:42:04.001Z</time></trkpt><trkpt lat="-34.097245199625185" lon="-71.95680961208029"><ele>128.0</ele><time>2026-03-31T14:42:08.001Z</time></trkpt><trkpt lat="-34.0973154959151" lon="-71.95677120625577"><ele>127.99999999999999</ele><time>2026-03-31T14:42:12Z</time></trkpt><trkpt lat="-34.09739181808695" lon="-71.95675847155074"><ele>128.0</ele><time>2026-03-31T14:42:16Z</time></trkpt><trkpt lat="-34.09745982432686" lon="-71.9567389394298"><ele>128.0</ele><time>2026-03-31T14:42:18Z</time></trkpt><trkpt lat="-34.09753317821328" lon="-71.95674362911103"><ele>128.0</ele><time>2026-03-31T14:42:20Z</time></trkpt><trkpt lat="-34.09759798429525" lon="-71.9567534261604"><ele>127.99999999999999</ele><time>2026-03-31T14:42:22Z</time></trkpt><trkpt lat="-34.0976789824192" lon="-71.95673542201557"><ele>128.0</ele><time>2026-03-31T14:42:24Z</time></trkpt><trkpt lat="-34.097758916045215" lon="-71.9567730550303"><ele>126.71428571428571</ele><time>2026-03-31T14:42:28Z</time></trkpt><trkpt lat="-34.0978284977401" lon="-71.95675016194004"><ele>125.42857142857142</ele><time>2026-03-31T14:42:30Z</time></trkpt><trkpt lat="-34.09789021202408" lon="-71.95671229936677"><ele>124.14285714285714</ele><time>2026-03-31T14:42:32Z</time></trkpt><trkpt lat="-34.09796076864397" lon="-71.95671592695918"><ele>122.85714285714286</ele><time>2026-03-31T14:42:35Z</time></trkpt><trkpt lat="-34.098023491571304" lon="-71.95673081469198"><ele>121.57142857142857</ele><time>2026-03-31T14:42:38Z</time></trkpt><trkpt lat="-34.0980866732779" lon="-71.95675016307204"><ele>120.28571428571428</ele><time>2026-03-31T14:42:40Z</time></trkpt><trkpt lat="-34.098172073297185" lon="-71.95677186871188"><ele>119.0</ele><time>2026-03-31T14:42:43Z</time></trkpt><trkpt lat="-34.09825419778873" lon="-71.95676966544634"><ele>117.71428571428571</ele><time>2026-03-31T14:42:46Z</time></trkpt><trkpt lat="-34.098315542597774" lon="-71.95680342567336"><ele>116.42857142857143</ele><time>2026-03-31T14:42:49Z</time></trkpt><trkpt lat="-34.09837918557151" lon="-71.95680988522551"><ele>115.14285714285714</ele><time>2026-03-31T14:42:52Z</time></trkpt><trkpt lat="-34.09845978046223" lon="-71.9568338906026"><ele>113.85714285714286</ele><time>2026-03-31T14:42:55Z</time></trkpt><trkpt lat="-34.098533246407364" lon="-71.95686638012346"><ele>112.57142857142857</ele><time>2026-03-31T14:42:58Z</time></trkpt><trkpt lat="-34.09860488319966" lon="-71.95687990360561"><ele>111.28571428571428</ele><time>2026-03-31T14:43:01Z</time></trkpt><trkpt lat="-34.09866671554677" lon="-71.9568630289203"><ele>110.0</ele><time>2026-03-31T14:43:03Z</time></trkpt><trkpt lat="-34.098745650110345" lon="-71.95684441877833"><ele>109.99999999999999</ele><time>2026-03-31T14:43:06Z</time></trkpt><trkpt lat="-34.09879245012118" lon="-71.95690276933246"><ele>110.0</ele><time>2026-03-31T14:43:08Z</time></trkpt><trkpt lat="-34.09885000299029" lon="-71.95686067304622"><ele>110.0</ele><time>2026-03-31T14:43:10Z</time></trkpt><trkpt lat="-34.09893032133808" lon="-71.95685095211647"><ele>110.0</ele><time>2026-03-31T14:43:14Z</time></trkpt><trkpt lat="-34.09899888012988" lon="-71.95684733130379"><ele>110.0</ele><time>2026-03-31T14:43:17Z</time></trkpt><trkpt lat="-34.09907749073581" lon="-71.95684034210312"><ele>109.99999999999999</ele><time>2026-03-31T14:43:20Z</time></trkpt><trkpt lat="-34.09914587958831" lon="-71.956807386868"><ele>110.0</ele><time>2026-03-31T14:43:23Z</time></trkpt><trkpt lat="-34.09922588518766" lon="-71.95677963046278"><ele>108.57142857142857</ele><time>2026-03-31T14:43:27Z</time></trkpt><trkpt lat="-34.09929415901917" lon="-71.95674514608665"><ele>107.14285714285714</ele><time>2026-03-31T14:43:30Z</time></trkpt><trkpt lat="-34.09936542922914" lon="-71.95669506840136"><ele>105.71428571428572</ele><time>2026-03-31T14:43:34Z</time></trkpt><trkpt lat="-34.09942609031371" lon="-71.95666740091465"><ele>104.28571428571428</ele><time>2026-03-31T14:43:37Z</time></trkpt><trkpt lat="-34.09948679957253" lon="-71.95661961460733"><ele>102.85714285714286</ele><time>2026-03-31T14:43:40Z</time></trkpt><trkpt lat="-34.099545159162744" lon="-71.95658756196715"><ele>101.42857142857143</ele><time>2026-03-31T14:43:43Z</time></trkpt><trkpt lat="-34.099618564654754" lon="-71.95656344396416"><ele>100.0</ele><time>2026-03-31T14:43:46Z</time></trkpt><trkpt lat="-34.099696350637316" lon="-71.95654844497726"><ele>99.66666666666667</ele><time>2026-03-31T14:43:49Z</time></trkpt><trkpt lat="-34.099761936096414" lon="-71.95652971737042"><ele>99.33333333333334</ele><time>2026-03-31T14:43:53.001Z</time></trkpt><trkpt lat="-34.099842814526625" lon="-71.95651432774554"><ele>99.0</ele><time>2026-03-31T14:43:56.001Z</time></trkpt><trkpt lat="-34.09992526773606" lon="-71.95651722643449"><ele>98.66666666666666</ele><time>2026-03-31T14:43:59.001Z</time></trkpt><trkpt lat="-34.10000194098754" lon="-71.95653654504174"><ele>98.33333333333333</ele><time>2026-03-31T14:44:02.001Z</time></trkpt><trkpt lat="-34.10008420717107" lon="-71.95655039431686"><ele>98.0</ele><time>2026-03-31T14:44:05.001Z</time></trkpt><trkpt lat="-34.10014890761722" lon="-71.95658646258939"><ele>97.16666666666666</ele><time>2026-03-31T14:44:08.001Z</time></trkpt><trkpt lat="-34.1002224382928" lon="-71.9565716141005"><ele>96.33333333333333</ele><time>2026-03-31T14:44:10Z</time></trkpt><trkpt lat="-34.10028643608786" lon="-71.95660426973848"><ele>95.5</ele><time>2026-03-31T14:44:13Z</time></trkpt><trkpt lat="-34.10035474362291" lon="-71.95664282676199"><ele>94.66666666666666</ele><time>2026-03-31T14:44:16Z</time></trkpt><trkpt lat="-34.100442471848844" lon="-71.95665668016923"><ele>93.83333333333333</ele><time>2026-03-31T14:44:19Z</time></trkpt><trkpt lat="-34.100499246706434" lon="-71.95669987282275"><ele>93.0</ele><time>2026-03-31T14:44:22Z</time></trkpt><trkpt lat="-34.100560308075245" lon="-71.95675567443834"><ele>93.0</ele><time>2026-03-31T14:44:24Z</time></trkpt><trkpt lat="-34.10064225990386" lon="-71.9567886414436"><ele>93.0</ele><time>2026-03-31T14:44:27Z</time></trkpt><trkpt lat="-34.10068992240096" lon="-71.95685529452977"><ele>93.0</ele><time>2026-03-31T14:44:30Z</time></trkpt><trkpt lat="-34.10077804988466" lon="-71.95690591921121"><ele>93.0</ele><time>2026-03-31T14:44:33Z</time></trkpt><trkpt lat="-34.10083127642674" lon="-71.95695034103457"><ele>93.0</ele><time>2026-03-31T14:44:35Z</time></trkpt><trkpt lat="-34.10087490207058" lon="-71.9570069110433"><ele>93.0</ele><time>2026-03-31T14:44:37Z</time></trkpt><trkpt lat="-34.10094861693874" lon="-71.95706732150023"><ele>92.0</ele><time>2026-03-31T14:44:40Z</time></trkpt><trkpt lat="-34.101021120749536" lon="-71.95709781372437"><ele>91.0</ele><time>2026-03-31T14:44:43Z</time></trkpt><trkpt lat="-34.10108606395225" lon="-71.95716357208723"><ele>90.0</ele><time>2026-03-31T14:44:46Z</time></trkpt><trkpt lat="-34.101151143152116" lon="-71.95723052197563"><ele>89.0</ele><time>2026-03-31T14:44:49Z</time></trkpt><trkpt lat="-34.10119487349791" lon="-71.95731622937879"><ele>88.0</ele><time>2026-03-31T14:44:52Z</time></trkpt><trkpt lat="-34.10122072728887" lon="-71.95742603095132"><ele>87.0</ele><time>2026-03-31T14:44:55Z</time></trkpt><trkpt lat="-34.10125116161644" lon="-71.95751820614423"><ele>87.83333333333333</ele><time>2026-03-31T14:44:58Z</time></trkpt><trkpt lat="-34.10126757341538" lon="-71.95760464655477"><ele>88.66666666666667</ele><time>2026-03-31T14:45:01Z</time></trkpt><trkpt lat="-34.101297094549885" lon="-71.95769558919189"><ele>89.5</ele><time>2026-03-31T14:45:05Z</time></trkpt><trkpt lat="-34.101320211044246" lon="-71.95778015656857"><ele>90.33333333333334</ele><time>2026-03-31T14:45:07Z</time></trkpt><trkpt lat="-34.101378092655864" lon="-71.95785206222222"><ele>91.16666666666667</ele><time>2026-03-31T14:45:10Z</time></trkpt><trkpt lat="-34.10142724452887" lon="-71.9579402162824"><ele>92.0</ele><time>2026-03-31T14:45:13Z</time></trkpt><trkpt lat="-34.10146710345588" lon="-71.9580180222173"><ele>92.0</ele><time>2026-03-31T14:45:16Z</time></trkpt><trkpt lat="-34.10150783318074" lon="-71.95808852282663"><ele>92.0</ele><time>2026-03-31T14:45:19Z</time></trkpt><trkpt lat="-34.10155585962748" lon="-71.95815427615061"><ele>92.0</ele><time>2026-03-31T14:45:22Z</time></trkpt><trkpt lat="-34.101614409651404" lon="-71.9582105455346"><ele>92.0</ele><time>2026-03-31T14:45:25Z</time></trkpt><trkpt lat="-34.10165387201619" lon="-71.95828057108197"><ele>92.0</ele><time>2026-03-31T14:45:28Z</time></trkpt><trkpt lat="-34.10173714058705" lon="-71.9583037585099"><ele>92.0</ele><time>2026-03-31T14:45:31Z</time></trkpt><trkpt lat="-34.10180067756008" lon="-71.9583290722864"><ele>92.0</ele><time>2026-03-31T14:45:33Z</time></trkpt><trkpt lat="-34.101873370664286" lon="-71.9583526825056"><ele>92.0</ele><time>2026-03-31T14:45:36Z</time></trkpt><trkpt lat="-34.10193282537179" lon="-71.95840144152294"><ele>92.0</ele><time>2026-03-31T14:45:39Z</time></trkpt><trkpt lat="-34.10201494423807" lon="-71.95841715911907"><ele>92.0</ele><time>2026-03-31T14:45:42Z</time></trkpt><trkpt lat="-34.10208343747118" lon="-71.95847428536725"><ele>92.0</ele><time>2026-03-31T14:45:45Z</time></trkpt><trkpt lat="-34.102156885830006" lon="-71.95850958420971"><ele>92.0</ele><time>2026-03-31T14:45:48Z</time></trkpt><trkpt lat="-34.10223248764367" lon="-71.95854483217269"><ele>92.0</ele><time>2026-03-31T14:45:51Z</time></trkpt><trkpt lat="-34.10230990078652" lon="-71.95854295209462"><ele>92.0</ele><time>2026-03-31T14:45:54Z</time></trkpt><trkpt lat="-34.10238241430689" lon="-71.95856660383741"><ele>92.0</ele><time>2026-03-31T14:45:57.001Z</time></trkpt><trkpt lat="-34.1024471067584" lon="-71.95857440741514"><ele>92.0</ele><time>2026-03-31T14:46:00.001Z</time></trkpt><trkpt lat="-34.1025107859536" lon="-71.95858862568838"><ele>92.0</ele><time>2026-03-31T14:46:03.001Z</time></trkpt><trkpt lat="-34.10258261956411" lon="-71.95860687953237"><ele>92.0</ele><time>2026-03-31T14:46:06.001Z</time></trkpt><trkpt lat="-34.102649257229714" lon="-71.9586051457187"><ele>92.0</ele><time>2026-03-31T14:46:08.001Z</time></trkpt><trkpt lat="-34.10272152739724" lon="-71.95864067996482"><ele>92.0</ele><time>2026-03-31T14:46:11Z</time></trkpt><trkpt lat="-34.10279650519273" lon="-71.95868892710357"><ele>90.33333333333334</ele><time>2026-03-31T14:46:14Z</time></trkpt><trkpt lat="-34.102860620114704" lon="-71.9587432249162"><ele>88.66666666666667</ele><time>2026-03-31T14:46:17Z</time></trkpt><trkpt lat="-34.10290849213108" lon="-71.95881204472582"><ele>87.0</ele><time>2026-03-31T14:46:20Z</time></trkpt><trkpt lat="-34.10291855148025" lon="-71.95889095567568"><ele>85.33333333333333</ele><time>2026-03-31T14:46:22Z</time></trkpt><trkpt lat="-34.102910433913166" lon="-71.95899510569546"><ele>83.66666666666666</ele><time>2026-03-31T14:46:25Z</time></trkpt><trkpt lat="-34.10288841159138" lon="-71.95908191593954"><ele>82.0</ele><time>2026-03-31T14:46:28Z</time></trkpt><trkpt lat="-34.10283622169049" lon="-71.9591678461784"><ele>82.71428571428571</ele><time>2026-03-31T14:46:31Z</time></trkpt><trkpt lat="-34.10281503532028" lon="-71.9592610539619"><ele>83.42857142857143</ele><time>2026-03-31T14:46:34Z</time></trkpt><trkpt lat="-34.102800569706574" lon="-71.95934653781616"><ele>84.14285714285714</ele><time>2026-03-31T14:46:37Z</time></trkpt><trkpt lat="-34.102800031757134" lon="-71.95944157070134"><ele>84.85714285714286</ele><time>2026-03-31T14:46:40Z</time></trkpt><trkpt lat="-34.10279294764283" lon="-71.95953016841317"><ele>85.57142857142857</ele><time>2026-03-31T14:46:44Z</time></trkpt><trkpt lat="-34.102814928872164" lon="-71.95960519347965"><ele>86.28571428571428</ele><time>2026-03-31T14:46:46Z</time></trkpt><trkpt lat="-34.10284411767519" lon="-71.95969191807387"><ele>87.0</ele><time>2026-03-31T14:46:51Z</time></trkpt><trkpt lat="-34.10289254565541" lon="-71.95980042655238"><ele>87.0</ele><time>2026-03-31T14:46:54Z</time></trkpt><trkpt lat="-34.102921696444234" lon="-71.95986995876517"><ele>87.0</ele><time>2026-03-31T14:46:56Z</time></trkpt><trkpt lat="-34.102985340095664" lon="-71.95993132910023"><ele>87.0</ele><time>2026-03-31T14:46:59Z</time></trkpt><trkpt lat="-34.10304655888652" lon="-71.9599883262306"><ele>87.0</ele><time>2026-03-31T14:47:02Z</time></trkpt><trkpt lat="-34.103095818897394" lon="-71.96003978889657"><ele>87.0</ele><time>2026-03-31T14:47:05Z</time></trkpt><trkpt lat="-34.103157902093535" lon="-71.96008877901286"><ele>87.0</ele><time>2026-03-31T14:47:08Z</time></trkpt><trkpt lat="-34.103241513631204" lon="-71.96011113408176"><ele>87.0</ele><time>2026-03-31T14:47:11Z</time></trkpt><trkpt lat="-34.1032976757853" lon="-71.96018452210974"><ele>85.66666666666667</ele><time>2026-03-31T14:47:14Z</time></trkpt><trkpt lat="-34.10339382282477" lon="-71.96024561624549"><ele>84.33333333333333</ele><time>2026-03-31T14:47:18Z</time></trkpt><trkpt lat="-34.10345075057925" lon="-71.96030188729324"><ele>83.0</ele><time>2026-03-31T14:47:21Z</time></trkpt><trkpt lat="-34.103510173986095" lon="-71.96036795918035"><ele>81.66666666666666</ele><time>2026-03-31T14:47:24Z</time></trkpt><trkpt lat="-34.10355741030987" lon="-71.96042662772076"><ele>80.33333333333333</ele><time>2026-03-31T14:47:27Z</time></trkpt><trkpt lat="-34.1036100280742" lon="-71.96047662649654"><ele>79.0</ele><time>2026-03-31T14:47:30Z</time></trkpt><trkpt lat="-34.103677069922696" lon="-71.96053801004715"><ele>79.0</ele><time>2026-03-31T14:47:33Z</time></trkpt><trkpt lat="-34.103723938811086" lon="-71.96061421325078"><ele>79.0</ele><time>2026-03-31T14:47:36Z</time></trkpt><trkpt lat="-34.10374660766632" lon="-71.96068774928787"><ele>79.0</ele><time>2026-03-31T14:47:38Z</time></trkpt><trkpt lat="-34.10377408353132" lon="-71.96076119092679"><ele>79.0</ele><time>2026-03-31T14:47:41Z</time></trkpt><trkpt lat="-34.10377143720585" lon="-71.96084563371143"><ele>79.0</ele><time>2026-03-31T14:47:44Z</time></trkpt><trkpt lat="-34.103758374271116" lon="-71.96093296957758"><ele>79.0</ele><time>2026-03-31T14:47:47Z</time></trkpt><trkpt lat="-34.10379138603896" lon="-71.96104199126418"><ele>78.42857142857143</ele><time>2026-03-31T14:47:52Z</time></trkpt><trkpt lat="-34.10385269295283" lon="-71.9610730971714"><ele>77.85714285714286</ele><time>2026-03-31T14:47:54Z</time></trkpt><trkpt lat="-34.103900861528544" lon="-71.96114890546534"><ele>77.28571428571428</ele><time>2026-03-31T14:47:57Z</time></trkpt><trkpt lat="-34.10396510454236" lon="-71.96118499101657"><ele>76.71428571428572</ele><time>2026-03-31T14:48:00Z</time></trkpt><trkpt lat="-34.10403790509206" lon="-71.96120402160287"><ele>76.14285714285714</ele><time>2026-03-31T14:48:03Z</time></trkpt><trkpt lat="-34.10409102909413" lon="-71.96125155354106"><ele>75.57142857142857</ele><time>2026-03-31T14:48:06Z</time></trkpt><trkpt lat="-34.10416704064465" lon="-71.9612655192872"><ele>75.0</ele><time>2026-03-31T14:48:09Z</time></trkpt><trkpt lat="-34.104244253583275" lon="-71.96131782734186"><ele>74.99999999999999</ele><time>2026-03-31T14:48:12Z</time></trkpt><trkpt lat="-34.104303944514996" lon="-71.96134563082305"><ele>75.0</ele><time>2026-03-31T14:48:15Z</time></trkpt><trkpt lat="-34.104379028029605" lon="-71.96137363752482"><ele>75.0</ele><time>2026-03-31T14:48:19Z</time></trkpt><trkpt lat="-34.10445316255568" lon="-71.96141477378066"><ele>75.0</ele><time>2026-03-31T14:48:22Z</time></trkpt><trkpt lat="-34.104526522135124" lon="-71.96142611288069"><ele>75.0</ele><time>2026-03-31T14:48:24Z</time></trkpt><trkpt lat="-34.104592089910675" lon="-71.96145550632217"><ele>74.99999999999999</ele><time>2026-03-31T14:48:26Z</time></trkpt><trkpt lat="-34.10466605134085" lon="-71.96144462160557"><ele>75.0</ele><time>2026-03-31T14:48:29Z</time></trkpt><trkpt lat="-34.10473222422173" lon="-71.96146303965183"><ele>74.99999999999999</ele><time>2026-03-31T14:48:32Z</time></trkpt><trkpt lat="-34.10481931487087" lon="-71.96147700297746"><ele>75.0</ele><time>2026-03-31T14:48:35Z</time></trkpt><trkpt lat="-34.10487419792151" lon="-71.9614387134706"><ele>75.0</ele><time>2026-03-31T14:48:38Z</time></trkpt><trkpt lat="-34.10493678411217" lon="-71.96139965379326"><ele>75.0</ele><time>2026-03-31T14:48:41Z</time></trkpt><trkpt lat="-34.1050113011749" lon="-71.96137413720376"><ele>75.0</ele><time>2026-03-31T14:48:44Z</time></trkpt><trkpt lat="-34.10508978586852" lon="-71.96136254967675"><ele>74.99999999999999</ele><time>2026-03-31T14:48:47Z</time></trkpt><trkpt lat="-34.10515497533487" lon="-71.9613316780085"><ele>75.0</ele><time>2026-03-31T14:48:50Z</time></trkpt><trkpt lat="-34.1052177640109" lon="-71.96130001895042"><ele>73.66666666666667</ele><time>2026-03-31T14:48:52Z</time></trkpt><trkpt lat="-34.1052896158972" lon="-71.96128175311243"><ele>72.33333333333333</ele><time>2026-03-31T14:48:55Z</time></trkpt><trkpt lat="-34.10536442974844" lon="-71.96126305033299"><ele>71.0</ele><time>2026-03-31T14:48:58Z</time></trkpt><trkpt lat="-34.10544206812588" lon="-71.96124827006544"><ele>69.66666666666666</ele><time>2026-03-31T14:49:01Z</time></trkpt><trkpt lat="-34.105521198649235" lon="-71.9612706261576"><ele>68.33333333333333</ele><time>2026-03-31T14:49:04Z</time></trkpt><trkpt lat="-34.10560070032231" lon="-71.96127583768343"><ele>67.0</ele><time>2026-03-31T14:49:07Z</time></trkpt><trkpt lat="-34.105669098041055" lon="-71.96124726945209"><ele>66.33333333333333</ele><time>2026-03-31T14:49:10Z</time></trkpt><trkpt lat="-34.10574906251315" lon="-71.96124608234808"><ele>65.66666666666666</ele><time>2026-03-31T14:49:13Z</time></trkpt><trkpt lat="-34.10581767044176" lon="-71.9612277133067"><ele>65.0</ele><time>2026-03-31T14:49:16Z</time></trkpt><trkpt lat="-34.10590564281953" lon="-71.9612224548784"><ele>64.33333333333333</ele><time>2026-03-31T14:49:19Z</time></trkpt><trkpt lat="-34.10598192764819" lon="-71.96122373960011"><ele>63.666666666666664</ele><time>2026-03-31T14:49:23Z</time></trkpt><trkpt lat="-34.10604355141224" lon="-71.96119132789823"><ele>63.0</ele><time>2026-03-31T14:49:26Z</time></trkpt><trkpt lat="-34.106106980898716" lon="-71.96114757950645"><ele>63.0</ele><time>2026-03-31T14:49:29Z</time></trkpt><trkpt lat="-34.10617334013329" lon="-71.96107808133995"><ele>63.0</ele><time>2026-03-31T14:49:32Z</time></trkpt><trkpt lat="-34.10623998805472" lon="-71.961021458189"><ele>63.0</ele><time>2026-03-31T14:49:34Z</time></trkpt><trkpt lat="-34.106262610025006" lon="-71.96094010831776"><ele>63.0</ele><time>2026-03-31T14:49:39Z</time></trkpt><trkpt lat="-34.1062743995497" lon="-71.96083932599392"><ele>63.0</ele><time>2026-03-31T14:49:43Z</time></trkpt><trkpt lat="-34.106305530817664" lon="-71.96076830534683"><ele>63.0</ele><time>2026-03-31T14:49:45Z</time></trkpt><trkpt lat="-34.106378567077655" lon="-71.96071035152204"><ele>62.833333333333336</ele><time>2026-03-31T14:49:48Z</time></trkpt><trkpt lat="-34.1064203351448" lon="-71.9606496632078"><ele>62.66666666666667</ele><time>2026-03-31T14:49:50Z</time></trkpt><trkpt lat="-34.106446737175986" lon="-71.96054434085826"><ele>62.5</ele><time>2026-03-31T14:49:53Z</time></trkpt><trkpt lat="-34.10648949977922" lon="-71.96048352774844"><ele>62.333333333333336</ele><time>2026-03-31T14:49:55Z</time></trkpt><trkpt lat="-34.10653711022297" lon="-71.9603855386434"><ele>62.16666666666667</ele><time>2026-03-31T14:49:59Z</time></trkpt><trkpt lat="-34.106576737333356" lon="-71.960303928071"><ele>62.0</ele><time>2026-03-31T14:50:02Z</time></trkpt><trkpt lat="-34.106616788551925" lon="-71.96022900258197"><ele>62.66666666666667</ele><time>2026-03-31T14:50:05Z</time></trkpt><trkpt lat="-34.10663388450019" lon="-71.96013265644412"><ele>63.333333333333336</ele><time>2026-03-31T14:50:08Z</time></trkpt><trkpt lat="-34.106646630097195" lon="-71.960043208721"><ele>64.0</ele><time>2026-03-31T14:50:11Z</time></trkpt><trkpt lat="-34.10668231800629" lon="-71.95994863970442"><ele>64.66666666666667</ele><time>2026-03-31T14:50:14Z</time></trkpt><trkpt lat="-34.10669211718503" lon="-71.95986079165564"><ele>65.33333333333333</ele><time>2026-03-31T14:50:17Z</time></trkpt><trkpt lat="-34.10674186218612" lon="-71.95980402435428"><ele>66.0</ele><time>2026-03-31T14:50:20Z</time></trkpt><trkpt lat="-34.10680824128396" lon="-71.95979987375293"><ele>66.33333333333333</ele><time>2026-03-31T14:50:22Z</time></trkpt><trkpt lat="-34.10688174956738" lon="-71.95980236398101"><ele>66.66666666666667</ele><time>2026-03-31T14:50:25Z</time></trkpt><trkpt lat="-34.10697059711486" lon="-71.95984565095472"><ele>67.0</ele><time>2026-03-31T14:50:28Z</time></trkpt><trkpt lat="-34.10703983502505" lon="-71.95989645727954"><ele>67.33333333333334</ele><time>2026-03-31T14:50:31Z</time></trkpt><trkpt lat="-34.10710047568993" lon="-71.95994229697193"><ele>67.66666666666667</ele><time>2026-03-31T14:50:34Z</time></trkpt><trkpt lat="-34.10715702459895" lon="-71.9599838429154"><ele>68.0</ele><time>2026-03-31T14:50:36Z</time></trkpt><trkpt lat="-34.10723359031948" lon="-71.96001556594922"><ele>67.66666666666667</ele><time>2026-03-31T14:50:39Z</time></trkpt><trkpt lat="-34.107277270551094" lon="-71.9600981165876"><ele>67.33333333333334</ele><time>2026-03-31T14:50:42Z</time></trkpt><trkpt lat="-34.10733389894513" lon="-71.96016721840353"><ele>67.0</ele><time>2026-03-31T14:50:45Z</time></trkpt><trkpt lat="-34.1073765377768" lon="-71.96024145963541"><ele>66.66666666666667</ele><time>2026-03-31T14:50:48Z</time></trkpt><trkpt lat="-34.10741969975196" lon="-71.96031833194145"><ele>66.33333333333333</ele><time>2026-03-31T14:50:51Z</time></trkpt><trkpt lat="-34.10745867959698" lon="-71.96041081879065"><ele>66.0</ele><time>2026-03-31T14:50:54Z</time></trkpt><trkpt lat="-34.10752224318909" lon="-71.9604449073598"><ele>64.85714285714286</ele><time>2026-03-31T14:50:57Z</time></trkpt><trkpt lat="-34.10757831850357" lon="-71.96049453043976"><ele>63.71428571428572</ele><time>2026-03-31T14:51:04Z</time></trkpt><trkpt lat="-34.107634800032756" lon="-71.9605534788818"><ele>62.57142857142858</ele><time>2026-03-31T14:51:06Z</time></trkpt><trkpt lat="-34.10769651751301" lon="-71.96062330941834"><ele>61.42857142857143</ele><time>2026-03-31T14:51:09Z</time></trkpt><trkpt lat="-34.107751590789654" lon="-71.96070175387167"><ele>60.28571428571429</ele><time>2026-03-31T14:51:12Z</time></trkpt><trkpt lat="-34.10780012647611" lon="-71.96075690339981"><ele>59.14285714285715</ele><time>2026-03-31T14:51:14Z</time></trkpt><trkpt lat="-34.10783935366781" lon="-71.96081973362728"><ele>58.00000000000001</ele><time>2026-03-31T14:51:16Z</time></trkpt><trkpt lat="-34.10790175897998" lon="-71.96090880859563"><ele>56.666666666666664</ele><time>2026-03-31T14:51:19Z</time></trkpt><trkpt lat="-34.107952565958335" lon="-71.96096364949906"><ele>55.33333333333333</ele><time>2026-03-31T14:51:21Z</time></trkpt><trkpt lat="-34.107983104350424" lon="-71.96106129838049"><ele>54.0</ele><time>2026-03-31T14:51:24Z</time></trkpt><trkpt lat="-34.10799432941402" lon="-71.96115683425049"><ele>52.66666666666667</ele><time>2026-03-31T14:51:28Z</time></trkpt><trkpt lat="-34.10799381985585" lon="-71.96123829031107"><ele>51.333333333333336</ele><time>2026-03-31T14:51:31Z</time></trkpt><trkpt lat="-34.10802843065084" lon="-71.96133362388018"><ele>50.0</ele><time>2026-03-31T14:51:34Z</time></trkpt><trkpt lat="-34.10807040394484" lon="-71.96141201459929"><ele>50.00000000000001</ele><time>2026-03-31T14:51:37Z</time></trkpt><trkpt lat="-34.108098716987676" lon="-71.96150368660464"><ele>50.0</ele><time>2026-03-31T14:51:40Z</time></trkpt><trkpt lat="-34.10810990953626" lon="-71.96159953529406"><ele>50.0</ele><time>2026-03-31T14:51:43Z</time></trkpt><trkpt lat="-34.10815800746178" lon="-71.96168391956738"><ele>50.0</ele><time>2026-03-31T14:51:46Z</time></trkpt><trkpt lat="-34.10822160050319" lon="-71.96175943447861"><ele>50.00000000000001</ele><time>2026-03-31T14:51:49Z</time></trkpt><trkpt lat="-34.10829462468556" lon="-71.96181185910321"><ele>50.0</ele><time>2026-03-31T14:51:52Z</time></trkpt><trkpt lat="-34.10835109636987" lon="-71.96187806894578"><ele>49.00000000000001</ele><time>2026-03-31T14:51:55Z</time></trkpt><trkpt lat="-34.10841555699722" lon="-71.96194292175406"><ele>48.0</ele><time>2026-03-31T14:51:58Z</time></trkpt><trkpt lat="-34.1084695699814" lon="-71.96200584431752"><ele>47.0</ele><time>2026-03-31T14:52:01Z</time></trkpt><trkpt lat="-34.10853681603334" lon="-71.9620619753298"><ele>46.0</ele><time>2026-03-31T14:52:04Z</time></trkpt><trkpt lat="-34.108579737322565" lon="-71.96214888225762"><ele>45.0</ele><time>2026-03-31T14:52:07Z</time></trkpt><trkpt lat="-34.108566970658295" lon="-71.96224138566596"><ele>44.0</ele><time>2026-03-31T14:52:10Z</time></trkpt><trkpt lat="-34.10860794357333" lon="-71.96229944569359"><ele>44.0</ele><time>2026-03-31T14:52:13.999Z</time></trkpt><trkpt lat="-34.108662561129144" lon="-71.96239669343126"><ele>44.0</ele><time>2026-03-31T14:52:21Z</time></trkpt><trkpt lat="-34.10869184670883" lon="-71.96250961913121"><ele>44.0</ele><time>2026-03-31T14:52:24Z</time></trkpt><trkpt lat="-34.10872258892362" lon="-71.9626164875762"><ele>44.0</ele><time>2026-03-31T14:52:27Z</time></trkpt><trkpt lat="-34.10874130051085" lon="-71.96269325859156"><ele>44.0</ele><time>2026-03-31T14:52:29Z</time></trkpt><trkpt lat="-34.108772157362296" lon="-71.96276269076554"><ele>44.0</ele><time>2026-03-31T14:52:32Z</time></trkpt><trkpt lat="-34.10880173602304" lon="-71.96285169652359"><ele>43.166666666666664</ele><time>2026-03-31T14:52:40Z</time></trkpt><trkpt lat="-34.10884124631556" lon="-71.96294224581648"><ele>42.33333333333333</ele><time>2026-03-31T14:52:43Z</time></trkpt><trkpt lat="-34.108854826945255" lon="-71.9630431458265"><ele>41.5</ele><time>2026-03-31T14:52:46Z</time></trkpt><trkpt lat="-34.10888602335583" lon="-71.96313801214406"><ele>40.666666666666664</ele><time>2026-03-31T14:52:50Z</time></trkpt><trkpt lat="-34.108921201000236" lon="-71.96321282269683"><ele>39.833333333333336</ele><time>2026-03-31T14:52:53Z</time></trkpt><trkpt lat="-34.10896800482614" lon="-71.96327675383237"><ele>39.0</ele><time>2026-03-31T14:52:56Z</time></trkpt><trkpt lat="-34.10900523574374" lon="-71.96335177438942"><ele>39.166666666666664</ele><time>2026-03-31T14:52:59Z</time></trkpt><trkpt lat="-34.109063071303936" lon="-71.96340762831716"><ele>39.333333333333336</ele><time>2026-03-31T14:53:03Z</time></trkpt><trkpt lat="-34.10910865026504" lon="-71.96347649540812"><ele>39.5</ele><time>2026-03-31T14:53:07Z</time></trkpt><trkpt lat="-34.109149801242175" lon="-71.96354359993201"><ele>39.66666666666667</ele><time>2026-03-31T14:53:09Z</time></trkpt><trkpt lat="-34.10917947349138" lon="-71.96363349151686"><ele>39.833333333333336</ele><time>2026-03-31T14:53:12Z</time></trkpt><trkpt lat="-34.109219339745295" lon="-71.96369854504849"><ele>40.0</ele><time>2026-03-31T14:53:14Z</time></trkpt><trkpt lat="-34.10926083491297" lon="-71.96379224442235"><ele>38.833333333333336</ele><time>2026-03-31T14:53:17Z</time></trkpt><trkpt lat="-34.10930655021964" lon="-71.96385387634622"><ele>37.66666666666667</ele><time>2026-03-31T14:53:19Z</time></trkpt><trkpt lat="-34.10936135126182" lon="-71.96393561631443"><ele>36.5</ele><time>2026-03-31T14:53:22Z</time></trkpt><trkpt lat="-34.10941578482019" lon="-71.96402221401758"><ele>35.333333333333336</ele><time>2026-03-31T14:53:25Z</time></trkpt><trkpt lat="-34.10946800623644" lon="-71.96410348304707"><ele>34.166666666666664</ele><time>2026-03-31T14:53:28Z</time></trkpt><trkpt lat="-34.10951815249204" lon="-71.9641929996392"><ele>33.0</ele><time>2026-03-31T14:53:31Z</time></trkpt><trkpt lat="-34.10957049070117" lon="-71.96427547444101"><ele>33.0</ele><time>2026-03-31T14:53:34Z</time></trkpt><trkpt lat="-34.10964715629683" lon="-71.96433289611136"><ele>33.0</ele><time>2026-03-31T14:53:37Z</time></trkpt><trkpt lat="-34.1097021796697" lon="-71.96437555591231"><ele>33.0</ele><time>2026-03-31T14:53:39Z</time></trkpt><trkpt lat="-34.109748574252635" lon="-71.96443073104093"><ele>33.0</ele><time>2026-03-31T14:53:41Z</time></trkpt><trkpt lat="-34.10981515006035" lon="-71.96450325591752"><ele>33.0</ele><time>2026-03-31T14:53:44Z</time></trkpt><trkpt lat="-34.10987700753971" lon="-71.96457324856877"><ele>33.0</ele><time>2026-03-31T14:53:47Z</time></trkpt><trkpt lat="-34.109940300904064" lon="-71.96464308233662"><ele>32.0</ele><time>2026-03-31T14:53:50Z</time></trkpt><trkpt lat="-34.109986665133576" lon="-71.96472401986802"><ele>31.0</ele><time>2026-03-31T14:53:53Z</time></trkpt><trkpt lat="-34.11004211421049" lon="-71.96480294263814"><ele>30.0</ele><time>2026-03-31T14:53:56Z</time></trkpt><trkpt lat="-34.110074910174966" lon="-71.96488179418752"><ele>29.0</ele><time>2026-03-31T14:53:59Z</time></trkpt><trkpt lat="-34.110127829483304" lon="-71.96495583686828"><ele>28.0</ele><time>2026-03-31T14:54:02Z</time></trkpt><trkpt lat="-34.11018125228354" lon="-71.96503181700652"><ele>27.0</ele><time>2026-03-31T14:54:05Z</time></trkpt><trkpt lat="-34.110221518637736" lon="-71.96510627614772"><ele>26.714285714285715</ele><time>2026-03-31T14:54:08Z</time></trkpt><trkpt lat="-34.110272410644576" lon="-71.96519008397638"><ele>26.428571428571427</ele><time>2026-03-31T14:54:11Z</time></trkpt><trkpt lat="-34.110328641625415" lon="-71.96526929995971"><ele>26.142857142857146</ele><time>2026-03-31T14:54:14Z</time></trkpt><trkpt lat="-34.11034852566476" lon="-71.96534238494502"><ele>25.857142857142858</ele><time>2026-03-31T14:54:16Z</time></trkpt><trkpt lat="-34.11038180281435" lon="-71.96540866175863"><ele>25.571428571428573</ele><time>2026-03-31T14:54:18Z</time></trkpt><trkpt lat="-34.11041609126688" lon="-71.96548517471774"><ele>25.28571428571429</ele><time>2026-03-31T14:54:21Z</time></trkpt><trkpt lat="-34.11044077063353" lon="-71.9655611826155"><ele>25.0</ele><time>2026-03-31T14:54:23Z</time></trkpt><trkpt lat="-34.110478029109906" lon="-71.96564807043602"><ele>25.000000000000004</ele><time>2026-03-31T14:54:26Z</time></trkpt><trkpt lat="-34.110537799157655" lon="-71.96572385136675"><ele>25.0</ele><time>2026-03-31T14:54:29Z</time></trkpt><trkpt lat="-34.110548925187025" lon="-71.96581788448265"><ele>25.0</ele><time>2026-03-31T14:54:32Z</time></trkpt><trkpt lat="-34.11059044744382" lon="-71.96589286317592"><ele>25.0</ele><time>2026-03-31T14:54:35Z</time></trkpt><trkpt lat="-34.11055474440857" lon="-71.96597714782185"><ele>25.000000000000004</ele><time>2026-03-31T14:54:38Z</time></trkpt><trkpt lat="-34.11052876367269" lon="-71.96608146642924"><ele>25.0</ele><time>2026-03-31T14:54:42Z</time></trkpt><trkpt lat="-34.11049479158452" lon="-71.96618612153779"><ele>25.166666666666668</ele><time>2026-03-31T14:54:45Z</time></trkpt><trkpt lat="-34.11047360471335" lon="-71.96627329831676"><ele>25.333333333333336</ele><time>2026-03-31T14:54:48Z</time></trkpt><trkpt lat="-34.11045452227857" lon="-71.96636743799168"><ele>25.5</ele><time>2026-03-31T14:54:51Z</time></trkpt><trkpt lat="-34.11043323867115" lon="-71.96644935860006"><ele>25.666666666666664</ele><time>2026-03-31T14:54:54Z</time></trkpt><trkpt lat="-34.11043994545571" lon="-71.96654094336026"><ele>25.833333333333332</ele><time>2026-03-31T14:54:57Z</time></trkpt><trkpt lat="-34.110411982601136" lon="-71.96663787994034"><ele>26.0</ele><time>2026-03-31T14:55:00Z</time></trkpt><trkpt lat="-34.110425989583945" lon="-71.9667507427552"><ele>26.999999999999996</ele><time>2026-03-31T14:55:03Z</time></trkpt><trkpt lat="-34.11043610609983" lon="-71.96682845546916"><ele>28.0</ele><time>2026-03-31T14:55:06Z</time></trkpt><trkpt lat="-34.11042954486525" lon="-71.96693084437173"><ele>29.0</ele><time>2026-03-31T14:55:09Z</time></trkpt><trkpt lat="-34.11040980385467" lon="-71.9670360710039"><ele>30.0</ele><time>2026-03-31T14:55:12Z</time></trkpt><trkpt lat="-34.11041960396759" lon="-71.96711856100828"><ele>30.999999999999996</ele><time>2026-03-31T14:55:15Z</time></trkpt><trkpt lat="-34.110389209399784" lon="-71.96719668814806"><ele>32.0</ele><time>2026-03-31T14:55:18Z</time></trkpt><trkpt lat="-34.11038858900833" lon="-71.9672885257951"><ele>32.0</ele><time>2026-03-31T14:55:21Z</time></trkpt><trkpt lat="-34.11035106224506" lon="-71.96736569399053"><ele>31.999999999999996</ele><time>2026-03-31T14:55:24Z</time></trkpt><trkpt lat="-34.110331501148316" lon="-71.9674467092351"><ele>32.0</ele><time>2026-03-31T14:55:27Z</time></trkpt><trkpt lat="-34.11031756917997" lon="-71.96754591832281"><ele>32.0</ele><time>2026-03-31T14:55:30Z</time></trkpt><trkpt lat="-34.110332001131" lon="-71.96763159018704"><ele>31.999999999999996</ele><time>2026-03-31T14:55:33Z</time></trkpt><trkpt lat="-34.110320594957244" lon="-71.9677155051549"><ele>32.0</ele><time>2026-03-31T14:55:36Z</time></trkpt><trkpt lat="-34.110323023651176" lon="-71.96780334112671"><ele>32.0</ele><time>2026-03-31T14:55:39Z</time></trkpt><trkpt lat="-34.11032889827248" lon="-71.96788586321931"><ele>32.33333333333333</ele><time>2026-03-31T14:55:42Z</time></trkpt><trkpt lat="-34.11034577540701" lon="-71.96798709305367"><ele>32.666666666666664</ele><time>2026-03-31T14:55:45Z</time></trkpt><trkpt lat="-34.11034701595942" lon="-71.9680765462064"><ele>33.0</ele><time>2026-03-31T14:55:48Z</time></trkpt><trkpt lat="-34.110366366434704" lon="-71.96816777714598"><ele>33.333333333333336</ele><time>2026-03-31T14:55:51Z</time></trkpt><trkpt lat="-34.11036990408046" lon="-71.968261451457"><ele>33.66666666666667</ele><time>2026-03-31T14:55:54Z</time></trkpt><trkpt lat="-34.11038236219312" lon="-71.96834803823707"><ele>34.0</ele><time>2026-03-31T14:55:57Z</time></trkpt><trkpt lat="-34.11040206641559" lon="-71.96843396797726"><ele>34.0</ele><time>2026-03-31T14:56:00Z</time></trkpt><trkpt lat="-34.11041513152449" lon="-71.968532979272"><ele>34.0</ele><time>2026-03-31T14:56:03Z</time></trkpt><trkpt lat="-34.11043999586672" lon="-71.96863388646743"><ele>34.0</ele><time>2026-03-31T14:56:06Z</time></trkpt><trkpt lat="-34.11044886377306" lon="-71.96873019754753"><ele>34.0</ele><time>2026-03-31T14:56:09Z</time></trkpt><trkpt lat="-34.110467412620395" lon="-71.96880706094267"><ele>34.0</ele><time>2026-03-31T14:56:12Z</time></trkpt><trkpt lat="-34.110484453957916" lon="-71.96888107376252"><ele>34.0</ele><time>2026-03-31T14:56:14Z</time></trkpt><trkpt lat="-34.11051824249627" lon="-71.96896118848143"><ele>33.99999999999999</ele><time>2026-03-31T14:56:17Z</time></trkpt><trkpt lat="-34.11056045415486" lon="-71.96903077318882"><ele>34.0</ele><time>2026-03-31T14:56:20Z</time></trkpt><trkpt lat="-34.110608667052524" lon="-71.96909382232057"><ele>34.0</ele><time>2026-03-31T14:56:23Z</time></trkpt><trkpt lat="-34.11066248858757" lon="-71.96915591103885"><ele>34.0</ele><time>2026-03-31T14:56:25Z</time></trkpt><trkpt lat="-34.11072914862282" lon="-71.96921627792841"><ele>34.0</ele><time>2026-03-31T14:56:28Z</time></trkpt><trkpt lat="-34.11077880665882" lon="-71.96926456252872"><ele>33.99999999999999</ele><time>2026-03-31T14:56:30Z</time></trkpt><trkpt lat="-34.11083417457366" lon="-71.96930367624779"><ele>34.0</ele><time>2026-03-31T14:56:32Z</time></trkpt><trkpt lat="-34.110873169895115" lon="-71.96936510411696"><ele>33.833333333333336</ele><time>2026-03-31T14:56:34Z</time></trkpt><trkpt lat="-34.11093875839275" lon="-71.96941650618008"><ele>33.66666666666667</ele><time>2026-03-31T14:56:37Z</time></trkpt><trkpt lat="-34.110986612409036" lon="-71.96947722666549"><ele>33.5</ele><time>2026-03-31T14:56:39Z</time></trkpt><trkpt lat="-34.11103016341712" lon="-71.96954254051664"><ele>33.333333333333336</ele><time>2026-03-31T14:56:42Z</time></trkpt><trkpt lat="-34.11106043518499" lon="-71.96961656845625"><ele>33.166666666666664</ele><time>2026-03-31T14:56:44Z</time></trkpt><trkpt lat="-34.111111630416886" lon="-71.96969817177836"><ele>33.0</ele><time>2026-03-31T14:56:47Z</time></trkpt><trkpt lat="-34.11113125981505" lon="-71.96979702503702"><ele>33.0</ele><time>2026-03-31T14:56:50Z</time></trkpt><trkpt lat="-34.11116117359068" lon="-71.96989087852296"><ele>33.0</ele><time>2026-03-31T14:56:53Z</time></trkpt><trkpt lat="-34.111204299031826" lon="-71.96997704380199"><ele>33.0</ele><time>2026-03-31T14:56:56Z</time></trkpt><trkpt lat="-34.111237868137586" lon="-71.97005031043798"><ele>33.0</ele><time>2026-03-31T14:56:59Z</time></trkpt><trkpt lat="-34.11126902121867" lon="-71.97012865505435"><ele>33.0</ele><time>2026-03-31T14:57:01Z</time></trkpt><trkpt lat="-34.11129687925063" lon="-71.9702175323913"><ele>33.0</ele><time>2026-03-31T14:57:04Z</time></trkpt><trkpt lat="-34.11134841223839" lon="-71.9702911997269"><ele>32.833333333333336</ele><time>2026-03-31T14:57:07Z</time></trkpt><trkpt lat="-34.11139894834712" lon="-71.97036387164475"><ele>32.666666666666664</ele><time>2026-03-31T14:57:10Z</time></trkpt><trkpt lat="-34.111432723554195" lon="-71.9704644458104"><ele>32.5</ele><time>2026-03-31T14:57:13Z</time></trkpt><trkpt lat="-34.11146583890045" lon="-71.97055661318693"><ele>32.33333333333333</ele><time>2026-03-31T14:57:16Z</time></trkpt><trkpt lat="-34.11150194036827" lon="-71.97062579136188"><ele>32.166666666666664</ele><time>2026-03-31T14:57:19Z</time></trkpt><trkpt lat="-34.11152947101404" lon="-71.970699327735"><ele>32.0</ele><time>2026-03-31T14:57:21Z</time></trkpt><trkpt lat="-34.111571823361544" lon="-71.9707805050921"><ele>30.857142857142854</ele><time>2026-03-31T14:57:24Z</time></trkpt><trkpt lat="-34.11161414117462" lon="-71.97083936861868"><ele>29.71428571428571</ele><time>2026-03-31T14:57:26Z</time></trkpt><trkpt lat="-34.11162913771391" lon="-71.97091757541887"><ele>28.57142857142857</ele><time>2026-03-31T14:57:29Z</time></trkpt><trkpt lat="-34.11161773342761" lon="-71.97101871475786"><ele>27.428571428571427</ele><time>2026-03-31T14:57:32Z</time></trkpt><trkpt lat="-34.11162654403033" lon="-71.97111211325374"><ele>26.285714285714285</ele><time>2026-03-31T14:57:35Z</time></trkpt><trkpt lat="-34.11159793941163" lon="-71.9712078411166"><ele>25.14285714285714</ele><time>2026-03-31T14:57:38Z</time></trkpt><trkpt lat="-34.111632542274435" lon="-71.97127400613641"><ele>24.0</ele><time>2026-03-31T14:57:40Z</time></trkpt><trkpt lat="-34.11161864740117" lon="-71.97135374954438"><ele>24.0</ele><time>2026-03-31T14:57:42Z</time></trkpt><trkpt lat="-34.11163762269655" lon="-71.97143428969633"><ele>24.0</ele><time>2026-03-31T14:57:45Z</time></trkpt><trkpt lat="-34.11163766977269" lon="-71.9715381573374"><ele>24.0</ele><time>2026-03-31T14:57:48Z</time></trkpt><trkpt lat="-34.111659195364574" lon="-71.97164229826404"><ele>24.0</ele><time>2026-03-31T14:57:51Z</time></trkpt><trkpt lat="-34.11167083555455" lon="-71.97173990542593"><ele>24.0</ele><time>2026-03-31T14:57:54Z</time></trkpt><trkpt lat="-34.11168062490529" lon="-71.97182774977752"><ele>24.0</ele><time>2026-03-31T14:57:58Z</time></trkpt><trkpt lat="-34.111703983903794" lon="-71.97190211244958"><ele>24.166666666666668</ele><time>2026-03-31T14:58:01Z</time></trkpt><trkpt lat="-34.11170297080908" lon="-71.97202546668433"><ele>24.333333333333336</ele><time>2026-03-31T14:58:04Z</time></trkpt><trkpt lat="-34.11170803176069" lon="-71.97210684543175"><ele>24.5</ele><time>2026-03-31T14:58:06Z</time></trkpt><trkpt lat="-34.11171426897816" lon="-71.97219037619398"><ele>24.666666666666668</ele><time>2026-03-31T14:58:09Z</time></trkpt><trkpt lat="-34.11171665385297" lon="-71.97229457978345"><ele>24.833333333333336</ele><time>2026-03-31T14:58:12Z</time></trkpt><trkpt lat="-34.1117027464374" lon="-71.97238552234472"><ele>25.0</ele><time>2026-03-31T14:58:15Z</time></trkpt><trkpt lat="-34.11170643988737" lon="-71.97246759357422"><ele>24.833333333333336</ele><time>2026-03-31T14:58:17Z</time></trkpt><trkpt lat="-34.111719896046516" lon="-71.97256406234027"><ele>24.666666666666668</ele><time>2026-03-31T14:58:20Z</time></trkpt><trkpt lat="-34.11169409696778" lon="-71.97263373223768"><ele>24.5</ele><time>2026-03-31T14:58:22Z</time></trkpt><trkpt lat="-34.1116835014031" lon="-71.97273244898852"><ele>24.333333333333336</ele><time>2026-03-31T14:58:25Z</time></trkpt><trkpt lat="-34.111689299720695" lon="-71.97282340782365"><ele>24.166666666666668</ele><time>2026-03-31T14:58:28Z</time></trkpt><trkpt lat="-34.11169963621973" lon="-71.97291930871762"><ele>24.0</ele><time>2026-03-31T14:58:31Z</time></trkpt><trkpt lat="-34.11169126975306" lon="-71.97302621263727"><ele>24.0</ele><time>2026-03-31T14:58:34Z</time></trkpt><trkpt lat="-34.111680184508245" lon="-71.9731210485476"><ele>24.0</ele><time>2026-03-31T14:58:37Z</time></trkpt><trkpt lat="-34.11168033033951" lon="-71.9732169084426"><ele>24.0</ele><time>2026-03-31T14:58:40Z</time></trkpt><trkpt lat="-34.11167890933052" lon="-71.97329711912612"><ele>24.0</ele><time>2026-03-31T14:58:42Z</time></trkpt><trkpt lat="-34.111674026801914" lon="-71.97338693337022"><ele>24.0</ele><time>2026-03-31T14:58:45Z</time></trkpt><trkpt lat="-34.11167344854381" lon="-71.9734858179182"><ele>24.0</ele><time>2026-03-31T14:58:48Z</time></trkpt><trkpt lat="-34.11168685262541" lon="-71.97357394015384"><ele>24.0</ele><time>2026-03-31T14:58:51Z</time></trkpt><trkpt lat="-34.11167934592811" lon="-71.97367768632057"><ele>24.0</ele><time>2026-03-31T14:58:54Z</time></trkpt><trkpt lat="-34.1116809477198" lon="-71.97378484307612"><ele>24.0</ele><time>2026-03-31T14:58:57Z</time></trkpt><trkpt lat="-34.11165535809472" lon="-71.97388626796628"><ele>24.0</ele><time>2026-03-31T14:59:00Z</time></trkpt><trkpt lat="-34.11164946620031" lon="-71.97399563263427"><ele>24.0</ele><time>2026-03-31T14:59:03Z</time></trkpt><trkpt lat="-34.11165929296584" lon="-71.97407675023307"><ele>24.0</ele><time>2026-03-31T14:59:06Z</time></trkpt><trkpt lat="-34.111667294321585" lon="-71.97417115610708"><ele>24.166666666666668</ele><time>2026-03-31T14:59:09Z</time></trkpt><trkpt lat="-34.111641429461706" lon="-71.97426368403744"><ele>24.333333333333336</ele><time>2026-03-31T14:59:12Z</time></trkpt><trkpt lat="-34.111637679512114" lon="-71.97435215751392"><ele>24.5</ele><time>2026-03-31T14:59:15Z</time></trkpt><trkpt lat="-34.111637595383" lon="-71.97446128679015"><ele>24.666666666666668</ele><time>2026-03-31T14:59:18Z</time></trkpt><trkpt lat="-34.11164775966479" lon="-71.97455644364967"><ele>24.833333333333336</ele><time>2026-03-31T14:59:21Z</time></trkpt><trkpt lat="-34.11170314531548" lon="-71.97463032543189"><ele>25.0</ele><time>2026-03-31T14:59:24Z</time></trkpt><trkpt lat="-34.111747760712966" lon="-71.97471765087177"><ele>25.000000000000004</ele><time>2026-03-31T14:59:27Z</time></trkpt><trkpt lat="-34.11173506997998" lon="-71.97482507542598"><ele>25.0</ele><time>2026-03-31T14:59:30Z</time></trkpt><trkpt lat="-34.11167971218662" lon="-71.97491446691615"><ele>25.0</ele><time>2026-03-31T14:59:33Z</time></trkpt><trkpt lat="-34.111637507108334" lon="-71.97500223322585"><ele>25.0</ele><time>2026-03-31T14:59:36Z</time></trkpt><trkpt lat="-34.111586277470394" lon="-71.97507217955655"><ele>25.000000000000004</ele><time>2026-03-31T14:59:39Z</time></trkpt><trkpt lat="-34.1115368007035" lon="-71.97513140952779"><ele>25.0</ele><time>2026-03-31T14:59:42Z</time></trkpt><trkpt lat="-34.11149240888301" lon="-71.9752167572266"><ele>24.000000000000004</ele><time>2026-03-31T14:59:45Z</time></trkpt><trkpt lat="-34.11145442892051" lon="-71.97528490788292"><ele>23.0</ele><time>2026-03-31T14:59:47Z</time></trkpt><trkpt lat="-34.1114127082144" lon="-71.97535665103533"><ele>22.0</ele><time>2026-03-31T14:59:50Z</time></trkpt><trkpt lat="-34.111370603079024" lon="-71.97541994613825"><ele>21.0</ele><time>2026-03-31T14:59:53Z</time></trkpt><trkpt lat="-34.111330437811624" lon="-71.97551238406277"><ele>20.0</ele><time>2026-03-31T14:59:56Z</time></trkpt><trkpt lat="-34.111297666412824" lon="-71.97557848299878"><ele>19.000000000000004</ele><time>2026-03-31T14:59:58Z</time></trkpt><trkpt lat="-34.11127321414957" lon="-71.97567959222606"><ele>18.0</ele><time>2026-03-31T15:00:04Z</time></trkpt><trkpt lat="-34.1112588072269" lon="-71.97575632494944"><ele>18.0</ele><time>2026-03-31T15:00:06Z</time></trkpt><trkpt lat="-34.111212859879785" lon="-71.97584028716503"><ele>18.0</ele><time>2026-03-31T15:00:09Z</time></trkpt><trkpt lat="-34.111166209486065" lon="-71.97592505138154"><ele>18.0</ele><time>2026-03-31T15:00:12Z</time></trkpt><trkpt lat="-34.11113236340921" lon="-71.97601564663182"><ele>18.0</ele><time>2026-03-31T15:00:15Z</time></trkpt><trkpt lat="-34.111115161130165" lon="-71.97612051632882"><ele>18.0</ele><time>2026-03-31T15:00:18Z</time></trkpt><trkpt lat="-34.11109556640814" lon="-71.97622634522443"><ele>18.0</ele><time>2026-03-31T15:00:21Z</time></trkpt><trkpt lat="-34.11108034531705" lon="-71.97633466072324"><ele>17.333333333333332</ele><time>2026-03-31T15:00:24Z</time></trkpt><trkpt lat="-34.111060992186964" lon="-71.97643656318266"><ele>16.666666666666668</ele><time>2026-03-31T15:00:27Z</time></trkpt><trkpt lat="-34.11104534760903" lon="-71.97652198820118"><ele>16.0</ele><time>2026-03-31T15:00:30Z</time></trkpt><trkpt lat="-34.111014489839555" lon="-71.97660533991537"><ele>15.333333333333334</ele><time>2026-03-31T15:00:33Z</time></trkpt><trkpt lat="-34.11096796667977" lon="-71.97668935696885"><ele>14.666666666666668</ele><time>2026-03-31T15:00:36Z</time></trkpt><trkpt lat="-34.11092819464629" lon="-71.97677931095978"><ele>14.0</ele><time>2026-03-31T15:00:39Z</time></trkpt><trkpt lat="-34.11088505096152" lon="-71.97685833902229"><ele>13.833333333333334</ele><time>2026-03-31T15:00:42Z</time></trkpt><trkpt lat="-34.11083701071673" lon="-71.97692361857233"><ele>13.666666666666668</ele><time>2026-03-31T15:00:45Z</time></trkpt><trkpt lat="-34.11080518399964" lon="-71.97702041904847"><ele>13.5</ele><time>2026-03-31T15:00:48Z</time></trkpt><trkpt lat="-34.1107725262323" lon="-71.97711869110715"><ele>13.333333333333332</ele><time>2026-03-31T15:00:51Z</time></trkpt><trkpt lat="-34.110744800875096" lon="-71.97720547166264"><ele>13.166666666666666</ele><time>2026-03-31T15:00:54Z</time></trkpt><trkpt lat="-34.11071157796654" lon="-71.97727312346642"><ele>13.0</ele><time>2026-03-31T15:00:57Z</time></trkpt><trkpt lat="-34.110690153734126" lon="-71.9773615372204"><ele>13.285714285714285</ele><time>2026-03-31T15:01:00Z</time></trkpt><trkpt lat="-34.11066139748" lon="-71.97745069922958"><ele>13.571428571428573</ele><time>2026-03-31T15:01:03Z</time></trkpt><trkpt lat="-34.110634930004885" lon="-71.97752290001152"><ele>13.857142857142858</ele><time>2026-03-31T15:01:06Z</time></trkpt><trkpt lat="-34.11060469961" lon="-71.97759774000178"><ele>14.142857142857142</ele><time>2026-03-31T15:01:09Z</time></trkpt><trkpt lat="-34.110589707151874" lon="-71.97768907253557"><ele>14.428571428571427</ele><time>2026-03-31T15:01:12Z</time></trkpt><trkpt lat="-34.11055402127473" lon="-71.97777015643436"><ele>14.714285714285715</ele><time>2026-03-31T15:01:16Z</time></trkpt><trkpt lat="-34.110511434317786" lon="-71.97784458833037"><ele>15.0</ele><time>2026-03-31T15:01:19Z</time></trkpt><trkpt lat="-34.11047960570939" lon="-71.97793026591668"><ele>15.0</ele><time>2026-03-31T15:01:23Z</time></trkpt><trkpt lat="-34.110441271037274" lon="-71.97799571433468"><ele>15.0</ele><time>2026-03-31T15:01:26Z</time></trkpt><trkpt lat="-34.110383658512326" lon="-71.97807339148804"><ele>15.0</ele><time>2026-03-31T15:01:31Z</time></trkpt><trkpt lat="-34.110355890199834" lon="-71.97814740244559"><ele>15.0</ele><time>2026-03-31T15:01:36Z</time></trkpt><trkpt lat="-34.110316098435725" lon="-71.97820892632768"><ele>15.0</ele><time>2026-03-31T15:01:39Z</time></trkpt><trkpt lat="-34.11028156142914" lon="-71.97831257907053"><ele>15.0</ele><time>2026-03-31T15:01:43Z</time></trkpt><trkpt lat="-34.110243886517196" lon="-71.97838809484095"><ele>12.857142857142858</ele><time>2026-03-31T15:01:46Z</time></trkpt><trkpt lat="-34.110195879441676" lon="-71.97846621557204"><ele>10.714285714285714</ele><time>2026-03-31T15:01:50Z</time></trkpt><trkpt lat="-34.110162129186314" lon="-71.97853232972378"><ele>8.571428571428571</ele><time>2026-03-31T15:01:59Z</time></trkpt><trkpt lat="-34.11012103816123" lon="-71.97860077605418"><ele>6.428571428571429</ele><time>2026-03-31T15:03:04Z</time></trkpt><trkpt lat="-34.11009538647949" lon="-71.9786744204026"><ele>4.285714285714286</ele><time>2026-03-31T15:03:10Z</time></trkpt><trkpt lat="-34.11005302715284" lon="-71.97875468813571"><ele>2.142857142857143</ele><time>2026-03-31T15:11:09Z</time></trkpt><trkpt lat="-34.110006896099655" lon="-71.97883649092837"><ele>0.0</ele><time>2026-03-31T15:11:11Z</time></trkpt><trkpt lat="-34.109977960947326" lon="-71.97893414020018"><ele>0.0</ele><time>2026-03-31T15:11:13Z</time></trkpt><trkpt lat="-34.10997563854417" lon="-71.97902148966791"><ele>0.0</ele><time>2026-03-31T15:11:16Z</time></trkpt><trkpt lat="-34.10995249820865" lon="-71.97912539810127"><ele>0.0</ele><time>2026-03-31T15:11:19Z</time></trkpt><trkpt lat="-34.10993248692739" lon="-71.9792081492038"><ele>0.0</ele><time>2026-03-31T15:11:22Z</time></trkpt><trkpt lat="-34.10992026896189" lon="-71.97930890949843"><ele>0.0</ele><time>2026-03-31T15:11:25Z</time></trkpt><trkpt lat="-34.109909923337725" lon="-71.97941197504596"><ele>0.0</ele><time>2026-03-31T15:11:28Z</time></trkpt><trkpt lat="-34.10986656989044" lon="-71.97949489431326"><ele>0.0</ele><time>2026-03-31T15:11:31Z</time></trkpt><trkpt lat="-34.10980184415688" lon="-71.97949631899725"><ele>0.0</ele><time>2026-03-31T15:11:34Z</time></trkpt><trkpt lat="-34.10975334121042" lon="-71.97944568506311"><ele>0.0</ele><time>2026-03-31T15:11:37Z</time></trkpt><trkpt lat="-34.109785207619325" lon="-71.97935211889275"><ele>0.0</ele><time>2026-03-31T15:19:59Z</time></trkpt><trkpt lat="-34.109809315404" lon="-71.97927918604533"><ele>0.0</ele><time>2026-03-31T15:20:07Z</time></trkpt><trkpt lat="-34.10984208391358" lon="-71.97920895235293"><ele>0.0</ele><time>2026-03-31T15:20:14Z</time></trkpt><trkpt lat="-34.10991220415526" lon="-71.97915748219937"><ele>0.0</ele><time>2026-03-31T15:20:18Z</time></trkpt><trkpt lat="-34.10998600511427" lon="-71.97914785376716"><ele>0.0</ele><time>2026-03-31T15:20:23Z</time></trkpt><trkpt lat="-34.11005519458355" lon="-71.97913597210291"><ele>0.0</ele><time>2026-03-31T15:20:26Z</time></trkpt><trkpt lat="-34.11011833570293" lon="-71.97912092751112"><ele>0.0</ele><time>2026-03-31T15:20:29Z</time></trkpt><trkpt lat="-34.11019192560185" lon="-71.97911701962079"><ele>0.0</ele><time>2026-03-31T15:20:33Z</time></trkpt><trkpt lat="-34.110255667199105" lon="-71.9791207158566"><ele>0.0</ele><time>2026-03-31T15:20:38Z</time></trkpt><trkpt lat="-34.110319828049306" lon="-71.9791235481353"><ele>0.0</ele><time>2026-03-31T15:20:43Z</time></trkpt><trkpt lat="-34.11038584636692" lon="-71.97912466418988"><ele>0.0</ele><time>2026-03-31T15:20:49Z</time></trkpt><trkpt lat="-34.11045291635117" lon="-71.9791298197444"><ele>0.0</ele><time>2026-03-31T15:20:56Z</time></trkpt><trkpt lat="-34.110522736925205" lon="-71.9791154228186"><ele>0.0</ele><time>2026-03-31T15:21:03Z</time></trkpt><trkpt lat="-34.110588464989725" lon="-71.9790854409959"><ele>0.0</ele><time>2026-03-31T15:21:09.999Z</time></trkpt><trkpt lat="-34.110650029306235" lon="-71.97904971243331"><ele>0.0</ele><time>2026-03-31T15:21:16.999Z</time></trkpt><trkpt lat="-34.11069442701558" lon="-71.97898315340021"><ele>0.0</ele><time>2026-03-31T15:21:24.999Z</time></trkpt><trkpt lat="-34.110720185453566" lon="-71.97890656862148"><ele>0.0</ele><time>2026-03-31T15:21:31.999Z</time></trkpt><trkpt lat="-34.11078748543812" lon="-71.97886928024685"><ele>0.0</ele><time>2026-03-31T15:25:03Z</time></trkpt><trkpt lat="-34.110835729737566" lon="-71.97892515855007"><ele>0.0</ele><time>2026-03-31T15:27:26.999Z</time></trkpt><trkpt lat="-34.110783021060605" lon="-71.97887509540509"><ele>0.0</ele><time>2026-03-31T15:27:49.999Z</time></trkpt><trkpt lat="-34.11070920409323" lon="-71.9788664933063"><ele>0.0</ele><time>2026-03-31T15:35:25.001Z</time></trkpt><trkpt lat="-34.11067275248173" lon="-71.97880195019148"><ele>0.0</ele><time>2026-03-31T15:35:33.001Z</time></trkpt><trkpt lat="-34.11063083605153" lon="-71.97874271241733"><ele>0.0</ele><time>2026-03-31T15:35:40.001Z</time></trkpt><trkpt lat="-34.1105864092446" lon="-71.97868751953344"><ele>0.0</ele><time>2026-03-31T15:35:47.001Z</time></trkpt><trkpt lat="-34.110532152855235" lon="-71.97864871089027"><ele>0.0</ele><time>2026-03-31T15:35:54.001Z</time></trkpt><trkpt lat="-34.11050998685318" lon="-71.97857083041544"><ele>0.0</ele><time>2026-03-31T15:36:03.001Z</time></trkpt><trkpt lat="-34.110492270489566" lon="-71.97848889690565"><ele>0.0</ele><time>2026-03-31T15:36:15.001Z</time></trkpt><trkpt lat="-34.110587003255226" lon="-71.97844148458681"><ele>0.0</ele><time>2026-03-31T15:36:22.001Z</time></trkpt><trkpt lat="-34.11059622312418" lon="-71.97833978339227"><ele>0.0</ele><time>2026-03-31T15:36:24.001Z</time></trkpt><trkpt lat="-34.11050699067566" lon="-71.97832643733047"><ele>0.0</ele><time>2026-03-31T15:36:26.001Z</time></trkpt><trkpt lat="-34.11044471086275" lon="-71.97829289535912"><ele>0.0</ele><time>2026-03-31T15:36:32.001Z</time></trkpt><trkpt lat="-34.11041058316001" lon="-71.97822089936373"><ele>2.142857142857143</ele><time>2026-03-31T15:36:46.001Z</time></trkpt><trkpt lat="-34.11039275222611" lon="-71.97814470538934"><ele>4.285714285714286</ele><time>2026-03-31T15:36:57.001Z</time></trkpt><trkpt lat="-34.11039923285629" lon="-71.97806470964336"><ele>6.428571428571429</ele><time>2026-03-31T15:37:10.001Z</time></trkpt><trkpt lat="-34.110406960116855" lon="-71.97798863508838"><ele>8.571428571428571</ele><time>2026-03-31T15:37:19.001Z</time></trkpt><trkpt lat="-34.1103639534056" lon="-71.97791833054607"><ele>10.714285714285714</ele><time>2026-03-31T15:37:27.001Z</time></trkpt><trkpt lat="-34.11034313738409" lon="-71.97784489982509"><ele>12.857142857142858</ele><time>2026-03-31T15:37:36.001Z</time></trkpt><trkpt lat="-34.11040925420025" lon="-71.97787040628728"><ele>15.0</ele><time>2026-03-31T15:38:22.001Z</time></trkpt><trkpt lat="-34.11048241716245" lon="-71.97785960589539"><ele>15.0</ele><time>2026-03-31T15:38:28Z</time></trkpt><trkpt lat="-34.110529951047724" lon="-71.97778445925252"><ele>15.0</ele><time>2026-03-31T15:38:35Z</time></trkpt><trkpt lat="-34.11055339262867" lon="-71.97771172501024"><ele>15.0</ele><time>2026-03-31T15:38:41Z</time></trkpt><trkpt lat="-34.11058722190698" lon="-71.97764512882176"><ele>15.0</ele><time>2026-03-31T15:41:00Z</time></trkpt><trkpt lat="-34.11060966468416" lon="-71.97756864020498"><ele>15.0</ele><time>2026-03-31T15:41:08Z</time></trkpt><trkpt lat="-34.11063003372085" lon="-71.977489921914"><ele>15.0</ele><time>2026-03-31T15:41:15Z</time></trkpt><trkpt lat="-34.11067796647378" lon="-71.9774389516665"><ele>15.0</ele><time>2026-03-31T15:41:20Z</time></trkpt><trkpt lat="-34.11069877735017" lon="-71.9773626045278"><ele>15.0</ele><time>2026-03-31T15:41:28Z</time></trkpt><trkpt lat="-34.1107043514947" lon="-71.97727115112725"><ele>15.0</ele><time>2026-03-31T15:41:37Z</time></trkpt><trkpt lat="-34.1107609878372" lon="-71.97723401035591"><ele>15.0</ele><time>2026-03-31T15:42:23Z</time></trkpt><trkpt lat="-34.110775488362705" lon="-71.9771463842742"><ele>15.0</ele><time>2026-03-31T15:42:29Z</time></trkpt><trkpt lat="-34.11079868088933" lon="-71.97706488170813"><ele>15.0</ele><time>2026-03-31T15:42:35Z</time></trkpt><trkpt lat="-34.11083275374926" lon="-71.97698028828341"><ele>15.0</ele><time>2026-03-31T15:42:43.001Z</time></trkpt><trkpt lat="-34.11087855087066" lon="-71.97692608791112"><ele>15.0</ele><time>2026-03-31T15:42:49.001Z</time></trkpt><trkpt lat="-34.11092153057844" lon="-71.97686326020074"><ele>14.857142857142858</ele><time>2026-03-31T15:42:54.001Z</time></trkpt><trkpt lat="-34.11094887342397" lon="-71.97679316921473"><ele>14.714285714285714</ele><time>2026-03-31T15:43:02Z</time></trkpt><trkpt lat="-34.11098399853072" lon="-71.97671401464909"><ele>14.571428571428571</ele><time>2026-03-31T15:43:08Z</time></trkpt><trkpt lat="-34.11102090144359" lon="-71.97664659335618"><ele>14.428571428571429</ele><time>2026-03-31T15:43:13Z</time></trkpt><trkpt lat="-34.11104281942779" lon="-71.9765716166463"><ele>14.285714285714285</ele><time>2026-03-31T15:43:16Z</time></trkpt><trkpt lat="-34.11105315621496" lon="-71.97645919119107"><ele>14.142857142857142</ele><time>2026-03-31T15:43:20Z</time></trkpt><trkpt lat="-34.111074836581544" lon="-71.9763820929172"><ele>14.0</ele><time>2026-03-31T15:43:23Z</time></trkpt><trkpt lat="-34.11109992466423" lon="-71.97629917163059"><ele>14.0</ele><time>2026-03-31T15:43:26Z</time></trkpt><trkpt lat="-34.11111107721423" lon="-71.97622121250815"><ele>14.0</ele><time>2026-03-31T15:43:29Z</time></trkpt><trkpt lat="-34.11112194643619" lon="-71.97613245923057"><ele>14.0</ele><time>2026-03-31T15:43:32Z</time></trkpt><trkpt lat="-34.11115238432637" lon="-71.97604342432406"><ele>14.0</ele><time>2026-03-31T15:43:35Z</time></trkpt><trkpt lat="-34.111192493754054" lon="-71.9759693488514"><ele>14.0</ele><time>2026-03-31T15:43:38Z</time></trkpt><trkpt lat="-34.111212303496906" lon="-71.97589531436482"><ele>14.0</ele><time>2026-03-31T15:43:41Z</time></trkpt><trkpt lat="-34.11125462416166" lon="-71.97582979587582"><ele>14.0</ele><time>2026-03-31T15:43:44Z</time></trkpt><trkpt lat="-34.111280394570066" lon="-71.97575277547006"><ele>14.571428571428571</ele><time>2026-03-31T15:43:47Z</time></trkpt><trkpt lat="-34.11129967815807" lon="-71.97565166840268"><ele>15.142857142857142</ele><time>2026-03-31T15:43:51Z</time></trkpt><trkpt lat="-34.11133405702058" lon="-71.97557550322131"><ele>15.714285714285715</ele><time>2026-03-31T15:43:54Z</time></trkpt><trkpt lat="-34.11136544611769" lon="-71.97550226790283"><ele>16.285714285714285</ele><time>2026-03-31T15:43:57Z</time></trkpt><trkpt lat="-34.111404231540654" lon="-71.97543053494485"><ele>16.857142857142858</ele><time>2026-03-31T15:44:01Z</time></trkpt><trkpt lat="-34.11145384586048" lon="-71.97536527901487"><ele>17.42857142857143</ele><time>2026-03-31T15:44:04Z</time></trkpt><trkpt lat="-34.11150397928875" lon="-71.97529458059537"><ele>18.0</ele><time>2026-03-31T15:44:08Z</time></trkpt><trkpt lat="-34.11153629662901" lon="-71.97521400752191"><ele>18.000000000000004</ele><time>2026-03-31T15:44:12Z</time></trkpt><trkpt lat="-34.1115797828576" lon="-71.97514421688602"><ele>18.0</ele><time>2026-03-31T15:44:16Z</time></trkpt><trkpt lat="-34.11161901959086" lon="-71.97508202143895"><ele>18.0</ele><time>2026-03-31T15:44:19Z</time></trkpt><trkpt lat="-34.11165609528653" lon="-71.97501814654161"><ele>18.0</ele><time>2026-03-31T15:44:22Z</time></trkpt><trkpt lat="-34.1116988904788" lon="-71.97493249733735"><ele>18.0</ele><time>2026-03-31T15:44:26Z</time></trkpt><trkpt lat="-34.11174213867076" lon="-71.97487054294334"><ele>18.000000000000004</ele><time>2026-03-31T15:44:29Z</time></trkpt><trkpt lat="-34.11176338381354" lon="-71.97479584408588"><ele>18.0</ele><time>2026-03-31T15:44:32.001Z</time></trkpt><trkpt lat="-34.11174927120686" lon="-71.97471265185919"><ele>19.0</ele><time>2026-03-31T15:44:35.001Z</time></trkpt><trkpt lat="-34.11171491150257" lon="-71.97462724112593"><ele>20.0</ele><time>2026-03-31T15:44:38.001Z</time></trkpt><trkpt lat="-34.11168337242386" lon="-71.97453614357894"><ele>21.0</ele><time>2026-03-31T15:44:42.001Z</time></trkpt><trkpt lat="-34.11166090575968" lon="-71.97442789909833"><ele>22.0</ele><time>2026-03-31T15:44:46Z</time></trkpt><trkpt lat="-34.111662340007555" lon="-71.97434137630724"><ele>23.0</ele><time>2026-03-31T15:44:49Z</time></trkpt><trkpt lat="-34.1116723323728" lon="-71.97426096518122"><ele>24.0</ele><time>2026-03-31T15:44:52Z</time></trkpt><trkpt lat="-34.111674969778946" lon="-71.97414921820886"><ele>24.0</ele><time>2026-03-31T15:44:56Z</time></trkpt><trkpt lat="-34.111670609955894" lon="-71.97405606476117"><ele>24.0</ele><time>2026-03-31T15:44:59Z</time></trkpt><trkpt lat="-34.11166482762356" lon="-71.97395057896568"><ele>24.0</ele><time>2026-03-31T15:45:02Z</time></trkpt><trkpt lat="-34.111669827681546" lon="-71.9738695561934"><ele>24.0</ele><time>2026-03-31T15:45:05Z</time></trkpt><trkpt lat="-34.11168610704348" lon="-71.97377488704939"><ele>24.0</ele><time>2026-03-31T15:45:08Z</time></trkpt><trkpt lat="-34.11169193699222" lon="-71.97368773363395"><ele>24.0</ele><time>2026-03-31T15:45:11Z</time></trkpt><trkpt lat="-34.11170650666078" lon="-71.97359001876363"><ele>23.999999999999996</ele><time>2026-03-31T15:45:14Z</time></trkpt><trkpt lat="-34.111719504547885" lon="-71.9734986419499"><ele>24.0</ele><time>2026-03-31T15:45:17Z</time></trkpt><trkpt lat="-34.111714836263566" lon="-71.97341117696719"><ele>24.0</ele><time>2026-03-31T15:45:20Z</time></trkpt><trkpt lat="-34.111707896878535" lon="-71.97332395187078"><ele>24.0</ele><time>2026-03-31T15:45:23Z</time></trkpt><trkpt lat="-34.11171543837222" lon="-71.97322906335128"><ele>24.0</ele><time>2026-03-31T15:45:26Z</time></trkpt><trkpt lat="-34.11171473859946" lon="-71.97314499717379"><ele>23.999999999999996</ele><time>2026-03-31T15:45:29Z</time></trkpt><trkpt lat="-34.111703645286276" lon="-71.97306101557395"><ele>24.0</ele><time>2026-03-31T15:45:32Z</time></trkpt><trkpt lat="-34.111709922538125" lon="-71.97297916210968"><ele>24.0</ele><time>2026-03-31T15:45:34Z</time></trkpt><trkpt lat="-34.11172555408226" lon="-71.97289462463853"><ele>24.0</ele><time>2026-03-31T15:45:37Z</time></trkpt><trkpt lat="-34.11172277813637" lon="-71.97279197329806"><ele>24.0</ele><time>2026-03-31T15:45:40Z</time></trkpt><trkpt lat="-34.11173024096026" lon="-71.97271313685576"><ele>24.0</ele><time>2026-03-31T15:45:43Z</time></trkpt><trkpt lat="-34.111726646935956" lon="-71.97262523206115"><ele>24.0</ele><time>2026-03-31T15:45:46Z</time></trkpt><trkpt lat="-34.11172116073154" lon="-71.97253300666435"><ele>24.0</ele><time>2026-03-31T15:45:49Z</time></trkpt><trkpt lat="-34.11174300383256" lon="-71.97243530753697"><ele>24.166666666666668</ele><time>2026-03-31T15:45:52Z</time></trkpt><trkpt lat="-34.111745759785734" lon="-71.97235156562348"><ele>24.333333333333336</ele><time>2026-03-31T15:45:55Z</time></trkpt><trkpt lat="-34.11174256317184" lon="-71.9722574844776"><ele>24.5</ele><time>2026-03-31T15:45:58Z</time></trkpt><trkpt lat="-34.11172836709398" lon="-71.97217183135302"><ele>24.666666666666668</ele><time>2026-03-31T15:46:01Z</time></trkpt><trkpt lat="-34.111729182013704" lon="-71.97206726277419"><ele>24.833333333333336</ele><time>2026-03-31T15:46:04Z</time></trkpt><trkpt lat="-34.11170722847201" lon="-71.97196786048929"><ele>25.0</ele><time>2026-03-31T15:46:07Z</time></trkpt><trkpt lat="-34.11170841675555" lon="-71.97188576958267"><ele>25.000000000000004</ele><time>2026-03-31T15:46:10Z</time></trkpt><trkpt lat="-34.11170737955" lon="-71.97178589319054"><ele>25.0</ele><time>2026-03-31T15:46:13Z</time></trkpt><trkpt lat="-34.11168562861701" lon="-71.97169929404004"><ele>25.0</ele><time>2026-03-31T15:46:16Z</time></trkpt><trkpt lat="-34.111660508000874" lon="-71.97159128362459"><ele>25.0</ele><time>2026-03-31T15:46:19Z</time></trkpt><trkpt lat="-34.11166340929909" lon="-71.97149719425143"><ele>25.000000000000004</ele><time>2026-03-31T15:46:22Z</time></trkpt><trkpt lat="-34.11165905492531" lon="-71.9714046138857"><ele>25.0</ele><time>2026-03-31T15:46:25Z</time></trkpt><trkpt lat="-34.11166121978384" lon="-71.97131618452065"><ele>24.857142857142858</ele><time>2026-03-31T15:46:28Z</time></trkpt><trkpt lat="-34.11166337903862" lon="-71.97122645456825"><ele>24.714285714285715</ele><time>2026-03-31T15:46:31Z</time></trkpt><trkpt lat="-34.11164002770403" lon="-71.9711538443032"><ele>24.57142857142857</ele><time>2026-03-31T15:46:34Z</time></trkpt><trkpt lat="-34.111625361641146" lon="-71.97106723397668"><ele>24.42857142857143</ele><time>2026-03-31T15:46:37Z</time></trkpt><trkpt lat="-34.111633730644854" lon="-71.97098276377059"><ele>24.285714285714285</ele><time>2026-03-31T15:46:40Z</time></trkpt><trkpt lat="-34.1116271063731" lon="-71.97090157800466"><ele>24.142857142857142</ele><time>2026-03-31T15:46:43Z</time></trkpt><trkpt lat="-34.11162607009499" lon="-71.97079851667858"><ele>24.0</ele><time>2026-03-31T15:46:47Z</time></trkpt><trkpt lat="-34.111565116274" lon="-71.97073300727659"><ele>25.14285714285714</ele><time>2026-03-31T15:46:50Z</time></trkpt><trkpt lat="-34.11152900670076" lon="-71.9706514377646"><ele>26.285714285714285</ele><time>2026-03-31T15:46:53Z</time></trkpt><trkpt lat="-34.111476773811845" lon="-71.97058935598736"><ele>27.428571428571427</ele><time>2026-03-31T15:46:56Z</time></trkpt><trkpt lat="-34.11146382529672" lon="-71.97051176374679"><ele>28.57142857142857</ele><time>2026-03-31T15:46:58Z</time></trkpt><trkpt lat="-34.11142171125037" lon="-71.97043883548113"><ele>29.71428571428571</ele><time>2026-03-31T15:47:01Z</time></trkpt><trkpt lat="-34.111374881560955" lon="-71.97035281606716"><ele>30.857142857142854</ele><time>2026-03-31T15:47:04Z</time></trkpt><trkpt lat="-34.111330661024525" lon="-71.97028113823083"><ele>32.0</ele><time>2026-03-31T15:47:07Z</time></trkpt><trkpt lat="-34.11129541546076" lon="-71.97019423382812"><ele>31.999999999999996</ele><time>2026-03-31T15:47:10Z</time></trkpt><trkpt lat="-34.111265531832245" lon="-71.97010195452367"><ele>32.0</ele><time>2026-03-31T15:47:13Z</time></trkpt><trkpt lat="-34.111224211187945" lon="-71.97001371978162"><ele>32.0</ele><time>2026-03-31T15:47:16Z</time></trkpt><trkpt lat="-34.11119480665976" lon="-71.96993570616671"><ele>32.0</ele><time>2026-03-31T15:47:19Z</time></trkpt><trkpt lat="-34.11116697177757" lon="-71.96985220789259"><ele>31.999999999999996</ele><time>2026-03-31T15:47:22Z</time></trkpt><trkpt lat="-34.11113866208873" lon="-71.96976372595363"><ele>32.0</ele><time>2026-03-31T15:47:25Z</time></trkpt><trkpt lat="-34.111104468792" lon="-71.96968551921046"><ele>32.166666666666664</ele><time>2026-03-31T15:47:28Z</time></trkpt><trkpt lat="-34.11106589123701" lon="-71.96960437088477"><ele>32.33333333333333</ele><time>2026-03-31T15:47:31Z</time></trkpt><trkpt lat="-34.11100776570074" lon="-71.96953964241949"><ele>32.5</ele><time>2026-03-31T15:47:34Z</time></trkpt><trkpt lat="-34.11097219338367" lon="-71.96947013604444"><ele>32.666666666666664</ele><time>2026-03-31T15:47:37Z</time></trkpt><trkpt lat="-34.11091345701808" lon="-71.96940129040142"><ele>32.833333333333336</ele><time>2026-03-31T15:47:41Z</time></trkpt><trkpt lat="-34.11085557712104" lon="-71.96932417733046"><ele>33.0</ele><time>2026-03-31T15:47:44Z</time></trkpt><trkpt lat="-34.11079836935892" lon="-71.9692748715413"><ele>33.14285714285714</ele><time>2026-03-31T15:47:47Z</time></trkpt><trkpt lat="-34.11073539771381" lon="-71.96921529985582"><ele>33.285714285714285</ele><time>2026-03-31T15:47:50Z</time></trkpt><trkpt lat="-34.11067884893618" lon="-71.9691582774627"><ele>33.42857142857143</ele><time>2026-03-31T15:47:53Z</time></trkpt><trkpt lat="-34.11063008931431" lon="-71.96909978956246"><ele>33.57142857142857</ele><time>2026-03-31T15:47:56Z</time></trkpt><trkpt lat="-34.11056538512189" lon="-71.96904341235266"><ele>33.714285714285715</ele><time>2026-03-31T15:47:59Z</time></trkpt><trkpt lat="-34.110536599530015" lon="-71.96896632572567"><ele>33.857142857142854</ele><time>2026-03-31T15:48:02Z</time></trkpt><trkpt lat="-34.110494014688804" lon="-71.96889262336776"><ele>34.0</ele><time>2026-03-31T15:48:05Z</time></trkpt><trkpt lat="-34.1104800170514" lon="-71.96881565469938"><ele>34.0</ele><time>2026-03-31T15:48:08Z</time></trkpt><trkpt lat="-34.11045784126472" lon="-71.96872935670025"><ele>34.0</ele><time>2026-03-31T15:48:11Z</time></trkpt><trkpt lat="-34.11044146734726" lon="-71.96862888136505"><ele>34.0</ele><time>2026-03-31T15:48:14Z</time></trkpt><trkpt lat="-34.11041318283605" lon="-71.96853814234889"><ele>34.0</ele><time>2026-03-31T15:48:17Z</time></trkpt><trkpt lat="-34.11039768148811" lon="-71.96844762221846"><ele>34.0</ele><time>2026-03-31T15:48:20Z</time></trkpt><trkpt lat="-34.11040242837112" lon="-71.96836473661475"><ele>34.0</ele><time>2026-03-31T15:48:23Z</time></trkpt><trkpt lat="-34.11038633670755" lon="-71.9682860477619"><ele>34.0</ele><time>2026-03-31T15:48:25Z</time></trkpt><trkpt lat="-34.11036846873093" lon="-71.96819152685006"><ele>34.0</ele><time>2026-03-31T15:48:28Z</time></trkpt><trkpt lat="-34.110364347516324" lon="-71.9680973652118"><ele>34.0</ele><time>2026-03-31T15:48:31Z</time></trkpt><trkpt lat="-34.110346545850916" lon="-71.96800325257495"><ele>34.0</ele><time>2026-03-31T15:48:34Z</time></trkpt><trkpt lat="-34.11034303202109" lon="-71.96790114053107"><ele>34.0</ele><time>2026-03-31T15:48:37Z</time></trkpt><trkpt lat="-34.11035784376922" lon="-71.96782611011027"><ele>34.0</ele><time>2026-03-31T15:48:40Z</time></trkpt><trkpt lat="-34.11034874499807" lon="-71.96774192065054"><ele>34.0</ele><time>2026-03-31T15:48:42Z</time></trkpt><trkpt lat="-34.11035566749806" lon="-71.96762831901769"><ele>34.0</ele><time>2026-03-31T15:48:45Z</time></trkpt><trkpt lat="-34.1103620295118" lon="-71.96754157658138"><ele>34.0</ele><time>2026-03-31T15:48:48Z</time></trkpt><trkpt lat="-34.11039346867316" lon="-71.96744934973987"><ele>34.0</ele><time>2026-03-31T15:48:51Z</time></trkpt><trkpt lat="-34.11041152561501" lon="-71.96736580052179"><ele>34.0</ele><time>2026-03-31T15:48:54Z</time></trkpt><trkpt lat="-34.11041420325075" lon="-71.9672783257094"><ele>34.0</ele><time>2026-03-31T15:48:57Z</time></trkpt><trkpt lat="-34.11042404831851" lon="-71.9671879411555"><ele>33.66666666666667</ele><time>2026-03-31T15:49:00Z</time></trkpt><trkpt lat="-34.110441969115406" lon="-71.9670916301982"><ele>33.333333333333336</ele><time>2026-03-31T15:49:03Z</time></trkpt><trkpt lat="-34.11047137821039" lon="-71.96699476439689"><ele>33.0</ele><time>2026-03-31T15:49:06Z</time></trkpt><trkpt lat="-34.110449096266905" lon="-71.9669065413698"><ele>32.666666666666664</ele><time>2026-03-31T15:49:08Z</time></trkpt><trkpt lat="-34.11044129631086" lon="-71.96681696876891"><ele>32.33333333333333</ele><time>2026-03-31T15:49:11Z</time></trkpt><trkpt lat="-34.110442560033434" lon="-71.96673082628902"><ele>32.0</ele><time>2026-03-31T15:49:13Z</time></trkpt><trkpt lat="-34.110428537220116" lon="-71.96662219959146"><ele>30.999999999999996</ele><time>2026-03-31T15:49:16Z</time></trkpt><trkpt lat="-34.11046092155114" lon="-71.96653070907327"><ele>30.0</ele><time>2026-03-31T15:49:19Z</time></trkpt><trkpt lat="-34.11047677057122" lon="-71.96644115494787"><ele>29.0</ele><time>2026-03-31T15:49:22Z</time></trkpt><trkpt lat="-34.110495868416265" lon="-71.96634616465488"><ele>28.0</ele><time>2026-03-31T15:49:25Z</time></trkpt><trkpt lat="-34.11052052871791" lon="-71.96625554469371"><ele>26.999999999999996</ele><time>2026-03-31T15:49:28Z</time></trkpt><trkpt lat="-34.1105266044411" lon="-71.96615038812803"><ele>26.0</ele><time>2026-03-31T15:49:31Z</time></trkpt><trkpt lat="-34.110555937650865" lon="-71.9660618973977"><ele>25.999999999999996</ele><time>2026-03-31T15:49:34Z</time></trkpt><trkpt lat="-34.110582284003364" lon="-71.96597318537738"><ele>26.0</ele><time>2026-03-31T15:49:37Z</time></trkpt><trkpt lat="-34.110577314512696" lon="-71.96587295196085"><ele>26.0</ele><time>2026-03-31T15:49:40Z</time></trkpt><trkpt lat="-34.11055838451767" lon="-71.96579966540111"><ele>26.0</ele><time>2026-03-31T15:49:42Z</time></trkpt><trkpt lat="-34.110530920492074" lon="-71.96571077992411"><ele>25.999999999999996</ele><time>2026-03-31T15:49:45Z</time></trkpt><trkpt lat="-34.11047984352835" lon="-71.96561900715652"><ele>26.0</ele><time>2026-03-31T15:49:48Z</time></trkpt><trkpt lat="-34.1104404651025" lon="-71.96552363368734"><ele>25.833333333333332</ele><time>2026-03-31T15:49:51Z</time></trkpt><trkpt lat="-34.11039933277789" lon="-71.96543594503423"><ele>25.666666666666664</ele><time>2026-03-31T15:49:54Z</time></trkpt><trkpt lat="-34.11035654801038" lon="-71.96534313236248"><ele>25.5</ele><time>2026-03-31T15:49:57Z</time></trkpt><trkpt lat="-34.11031640298297" lon="-71.96526551214339"><ele>25.333333333333336</ele><time>2026-03-31T15:50:00Z</time></trkpt><trkpt lat="-34.110273647442156" lon="-71.96517101621176"><ele>25.166666666666668</ele><time>2026-03-31T15:50:03Z</time></trkpt><trkpt lat="-34.11022987095691" lon="-71.96508497502883"><ele>25.0</ele><time>2026-03-31T15:50:06Z</time></trkpt><trkpt lat="-34.11017511657984" lon="-71.96501488191748"><ele>25.333333333333336</ele><time>2026-03-31T15:50:09Z</time></trkpt><trkpt lat="-34.11013133822675" lon="-71.96492794368031"><ele>25.666666666666668</ele><time>2026-03-31T15:50:12Z</time></trkpt><trkpt lat="-34.11009129864957" lon="-71.9648415082113"><ele>26.0</ele><time>2026-03-31T15:50:15Z</time></trkpt><trkpt lat="-34.110043283250555" lon="-71.96476755484032"><ele>26.333333333333336</ele><time>2026-03-31T15:50:18Z</time></trkpt><trkpt lat="-34.110000138862624" lon="-71.96469440443398"><ele>26.666666666666668</ele><time>2026-03-31T15:50:21Z</time></trkpt><trkpt lat="-34.109961256494245" lon="-71.96462225365676"><ele>27.0</ele><time>2026-03-31T15:50:24Z</time></trkpt><trkpt lat="-34.109898321914436" lon="-71.96455719243781"><ele>28.0</ele><time>2026-03-31T15:50:27Z</time></trkpt><trkpt lat="-34.109845722660445" lon="-71.96448188913517"><ele>29.0</ele><time>2026-03-31T15:50:30Z</time></trkpt><trkpt lat="-34.10977264688891" lon="-71.96446453556494"><ele>30.0</ele><time>2026-03-31T15:50:33Z</time></trkpt><trkpt lat="-34.10971427189607" lon="-71.96439123152207"><ele>31.0</ele><time>2026-03-31T15:50:36Z</time></trkpt><trkpt lat="-34.109658736129305" lon="-71.96433572470707"><ele>32.0</ele><time>2026-03-31T15:50:39Z</time></trkpt><trkpt lat="-34.109608593975096" lon="-71.96425517603694"><ele>33.0</ele><time>2026-03-31T15:50:42Z</time></trkpt><trkpt lat="-34.109549322925055" lon="-71.96420653861959"><ele>32.714285714285715</ele><time>2026-03-31T15:50:45Z</time></trkpt><trkpt lat="-34.10950003941053" lon="-71.96414588042013"><ele>32.42857142857143</ele><time>2026-03-31T15:50:48Z</time></trkpt><trkpt lat="-34.109450689627444" lon="-71.96408358138245"><ele>32.142857142857146</ele><time>2026-03-31T15:50:51Z</time></trkpt><trkpt lat="-34.10939530165987" lon="-71.96402967065774"><ele>31.857142857142858</ele><time>2026-03-31T15:50:54Z</time></trkpt><trkpt lat="-34.10935384219856" lon="-71.96397169211397"><ele>31.571428571428577</ele><time>2026-03-31T15:50:57Z</time></trkpt><trkpt lat="-34.10933823618152" lon="-71.96389497613929"><ele>31.28571428571429</ele><time>2026-03-31T15:50:59Z</time></trkpt><trkpt lat="-34.109297061279314" lon="-71.96382556630873"><ele>31.0</ele><time>2026-03-31T15:51:02Z</time></trkpt><trkpt lat="-34.10926127459461" lon="-71.96375500587675"><ele>31.0</ele><time>2026-03-31T15:51:05Z</time></trkpt><trkpt lat="-34.10923721862591" lon="-71.9636677684475"><ele>31.000000000000004</ele><time>2026-03-31T15:51:08Z</time></trkpt><trkpt lat="-34.10919976706405" lon="-71.96360039192608"><ele>31.0</ele><time>2026-03-31T15:51:11Z</time></trkpt><trkpt lat="-34.10914974311616" lon="-71.96352222887619"><ele>31.0</ele><time>2026-03-31T15:51:15Z</time></trkpt><trkpt lat="-34.10911161799043" lon="-71.96345671861746"><ele>31.000000000000004</ele><time>2026-03-31T15:51:18Z</time></trkpt><trkpt lat="-34.1090632134778" lon="-71.96339921794508"><ele>31.0</ele><time>2026-03-31T15:51:21Z</time></trkpt><trkpt lat="-34.10902350209735" lon="-71.96333523751923"><ele>31.0</ele><time>2026-03-31T15:51:24Z</time></trkpt><trkpt lat="-34.10898330055091" lon="-71.96325759606266"><ele>32.333333333333336</ele><time>2026-03-31T15:51:28Z</time></trkpt><trkpt lat="-34.10894125593379" lon="-71.96319650646227"><ele>33.66666666666667</ele><time>2026-03-31T15:51:31Z</time></trkpt><trkpt lat="-34.108905902870305" lon="-71.96312711920412"><ele>35.0</ele><time>2026-03-31T15:51:34Z</time></trkpt><trkpt lat="-34.108895736065804" lon="-71.96302484847975"><ele>36.333333333333336</ele><time>2026-03-31T15:51:37Z</time></trkpt><trkpt lat="-34.108857985957805" lon="-71.96293463260884"><ele>37.666666666666664</ele><time>2026-03-31T15:51:41Z</time></trkpt><trkpt lat="-34.10880878540522" lon="-71.96288259050975"><ele>39.0</ele><time>2026-03-31T15:51:44Z</time></trkpt><trkpt lat="-34.108785220993184" lon="-71.96278734737297"><ele>39.0</ele><time>2026-03-31T15:51:48Z</time></trkpt><trkpt lat="-34.10875547702295" lon="-71.96270123720234"><ele>39.0</ele><time>2026-03-31T15:51:52Z</time></trkpt><trkpt lat="-34.10873456683246" lon="-71.96260152771711"><ele>39.0</ele><time>2026-03-31T15:51:55Z</time></trkpt><trkpt lat="-34.108714144382944" lon="-71.96252939933657"><ele>39.0</ele><time>2026-03-31T15:51:58Z</time></trkpt><trkpt lat="-34.108675823816874" lon="-71.96243930389541"><ele>39.0</ele><time>2026-03-31T15:52:02Z</time></trkpt><trkpt lat="-34.108657116104474" lon="-71.96236315335749"><ele>39.0</ele><time>2026-03-31T15:52:05Z</time></trkpt><trkpt lat="-34.10864258303648" lon="-71.96228079214157"><ele>39.0</ele><time>2026-03-31T15:52:08Z</time></trkpt><trkpt lat="-34.10862016615602" lon="-71.96220966507371"><ele>39.714285714285715</ele><time>2026-03-31T15:52:11Z</time></trkpt><trkpt lat="-34.10857769189441" lon="-71.96213964032596"><ele>40.42857142857142</ele><time>2026-03-31T15:52:14Z</time></trkpt><trkpt lat="-34.10853647432619" lon="-71.96208161403483"><ele>41.14285714285714</ele><time>2026-03-31T15:52:17Z</time></trkpt><trkpt lat="-34.10850162765121" lon="-71.9620142208062"><ele>41.85714285714286</ele><time>2026-03-31T15:52:21Z</time></trkpt><trkpt lat="-34.1084582750773" lon="-71.9619558105033"><ele>42.57142857142857</ele><time>2026-03-31T15:52:24Z</time></trkpt><trkpt lat="-34.10840269845717" lon="-71.96190668474297"><ele>43.285714285714285</ele><time>2026-03-31T15:52:31Z</time></trkpt><trkpt lat="-34.10834323652199" lon="-71.96185583305983"><ele>44.0</ele><time>2026-03-31T15:52:35Z</time></trkpt><trkpt lat="-34.108291426239916" lon="-71.96181259929556"><ele>44.285714285714285</ele><time>2026-03-31T15:52:40Z</time></trkpt><trkpt lat="-34.108237966658514" lon="-71.96175785400037"><ele>44.57142857142857</ele><time>2026-03-31T15:52:45Z</time></trkpt><trkpt lat="-34.10819771389845" lon="-71.96168930959358"><ele>44.85714285714286</ele><time>2026-03-31T15:52:50Z</time></trkpt><trkpt lat="-34.108151041785284" lon="-71.96163390047772"><ele>45.14285714285714</ele><time>2026-03-31T15:52:55Z</time></trkpt><trkpt lat="-34.10811252516865" lon="-71.96156417821757"><ele>45.42857142857142</ele><time>2026-03-31T15:53:00Z</time></trkpt><trkpt lat="-34.108073030719595" lon="-71.96150295836435"><ele>45.714285714285715</ele><time>2026-03-31T15:53:05Z</time></trkpt><trkpt lat="-34.108053755693525" lon="-71.96142431236045"><ele>46.0</ele><time>2026-03-31T15:53:10Z</time></trkpt><trkpt lat="-34.10803600437143" lon="-71.96134423318027"><ele>46.57142857142858</ele><time>2026-03-31T15:53:15Z</time></trkpt><trkpt lat="-34.108013434211" lon="-71.96126891624387"><ele>47.14285714285714</ele><time>2026-03-31T15:53:20Z</time></trkpt><trkpt lat="-34.10800382954539" lon="-71.96118698964837"><ele>47.714285714285715</ele><time>2026-03-31T15:53:25Z</time></trkpt><trkpt lat="-34.10798655496547" lon="-71.9611010903646"><ele>48.28571428571429</ele><time>2026-03-31T15:53:30Z</time></trkpt><trkpt lat="-34.107963192750844" lon="-71.96102314528474"><ele>48.85714285714286</ele><time>2026-03-31T15:53:35Z</time></trkpt><trkpt lat="-34.107926165585354" lon="-71.96094488899283"><ele>49.42857142857143</ele><time>2026-03-31T15:53:40Z</time></trkpt><trkpt lat="-34.10787658020733" lon="-71.96088715402516"><ele>50.0</ele><time>2026-03-31T15:53:45Z</time></trkpt><trkpt lat="-34.107832575273136" lon="-71.96081635910348"><ele>51.142857142857146</ele><time>2026-03-31T15:53:51Z</time></trkpt><trkpt lat="-34.107786513273226" lon="-71.96075840523132"><ele>52.28571428571429</ele><time>2026-03-31T15:53:57Z</time></trkpt><trkpt lat="-34.107734171144976" lon="-71.96071125532355"><ele>53.42857142857143</ele><time>2026-03-31T15:54:02Z</time></trkpt><trkpt lat="-34.10768798685693" lon="-71.96063901830539"><ele>54.57142857142858</ele><time>2026-03-31T15:54:08Z</time></trkpt><trkpt lat="-34.10765972905481" lon="-71.96056992837553"><ele>55.714285714285715</ele><time>2026-03-31T15:54:14Z</time></trkpt><trkpt lat="-34.107598579407835" lon="-71.96052667748411"><ele>56.85714285714287</ele><time>2026-03-31T15:54:19Z</time></trkpt><trkpt lat="-34.107543879750374" lon="-71.96047638317265"><ele>58.00000000000001</ele><time>2026-03-31T15:54:24Z</time></trkpt><trkpt lat="-34.10749182927451" lon="-71.96042345843017"><ele>58.00000000000001</ele><time>2026-03-31T15:54:29Z</time></trkpt><trkpt lat="-34.1074458220083" lon="-71.96036357027609"><ele>58.0</ele><time>2026-03-31T15:54:34Z</time></trkpt><trkpt lat="-34.10740056767772" lon="-71.96029906030417"><ele>58.00000000000001</ele><time>2026-03-31T15:54:39Z</time></trkpt><trkpt lat="-34.10735578684266" lon="-71.9602384317337"><ele>58.00000000000001</ele><time>2026-03-31T15:54:44Z</time></trkpt><trkpt lat="-34.107316605594285" lon="-71.96017325187982"><ele>58.0</ele><time>2026-03-31T15:54:49Z</time></trkpt><trkpt lat="-34.10727623506603" lon="-71.96011298136476"><ele>58.00000000000001</ele><time>2026-03-31T15:54:54Z</time></trkpt><trkpt lat="-34.10722864955048" lon="-71.96004975415049"><ele>58.00000000000001</ele><time>2026-03-31T15:55:00Z</time></trkpt><trkpt lat="-34.107172300925555" lon="-71.96000437189132"><ele>59.42857142857144</ele><time>2026-03-31T15:55:05Z</time></trkpt><trkpt lat="-34.10711413094055" lon="-71.9599548640359"><ele>60.85714285714286</ele><time>2026-03-31T15:55:11Z</time></trkpt><trkpt lat="-34.107049180475734" lon="-71.9599044107936"><ele>62.285714285714285</ele><time>2026-03-31T15:55:16Z</time></trkpt><trkpt lat="-34.106979824307004" lon="-71.9598802708023"><ele>63.714285714285715</ele><time>2026-03-31T15:55:21Z</time></trkpt><trkpt lat="-34.10692523639118" lon="-71.95984051369464"><ele>65.14285714285714</ele><time>2026-03-31T15:55:26Z</time></trkpt><trkpt lat="-34.10685109750285" lon="-71.95981416025273"><ele>66.57142857142857</ele><time>2026-03-31T15:55:32Z</time></trkpt><trkpt lat="-34.10678493176381" lon="-71.9598097120669"><ele>68.0</ele><time>2026-03-31T15:55:37Z</time></trkpt><trkpt lat="-34.10673093708067" lon="-71.95984987639373"><ele>67.99999999999999</ele><time>2026-03-31T15:55:42Z</time></trkpt><trkpt lat="-34.106701472000644" lon="-71.95991783368788"><ele>68.0</ele><time>2026-03-31T15:55:47Z</time></trkpt><trkpt lat="-34.10667833807566" lon="-71.9599973179318"><ele>68.0</ele><time>2026-03-31T15:55:52Z</time></trkpt><trkpt lat="-34.106651454916346" lon="-71.96007822373826"><ele>68.0</ele><time>2026-03-31T15:55:57Z</time></trkpt><trkpt lat="-34.10663275742275" lon="-71.96015804092578"><ele>68.0</ele><time>2026-03-31T15:56:02Z</time></trkpt><trkpt lat="-34.10659915323547" lon="-71.96023756931044"><ele>67.99999999999999</ele><time>2026-03-31T15:56:07Z</time></trkpt><trkpt lat="-34.10657554634701" lon="-71.96031516090157"><ele>68.0</ele><time>2026-03-31T15:56:13Z</time></trkpt><trkpt lat="-34.106525503843244" lon="-71.96037963311427"><ele>67.28571428571428</ele><time>2026-03-31T15:56:18Z</time></trkpt><trkpt lat="-34.10647932591309" lon="-71.96045332819023"><ele>66.57142857142857</ele><time>2026-03-31T15:56:24Z</time></trkpt><trkpt lat="-34.10644349791083" lon="-71.9605303504095"><ele>65.85714285714286</ele><time>2026-03-31T15:56:30Z</time></trkpt><trkpt lat="-34.106412862949554" lon="-71.9606078450771"><ele>65.14285714285714</ele><time>2026-03-31T15:56:35Z</time></trkpt><trkpt lat="-34.10638013665942" lon="-71.96067587331261"><ele>64.42857142857143</ele><time>2026-03-31T15:56:40Z</time></trkpt><trkpt lat="-34.10634164552283" lon="-71.96074299143021"><ele>63.714285714285715</ele><time>2026-03-31T15:56:45Z</time></trkpt><trkpt lat="-34.1063024939299" lon="-71.96080508540248"><ele>63.0</ele><time>2026-03-31T15:56:50Z</time></trkpt><trkpt lat="-34.106258002060436" lon="-71.96087665033501"><ele>63.0</ele><time>2026-03-31T15:56:55Z</time></trkpt><trkpt lat="-34.106228508974155" lon="-71.96095422687071"><ele>63.0</ele><time>2026-03-31T15:57:00Z</time></trkpt><trkpt lat="-34.1061985326662" lon="-71.96103210315846"><ele>63.0</ele><time>2026-03-31T15:57:05Z</time></trkpt><trkpt lat="-34.106154707253644" lon="-71.96109850475501"><ele>63.0</ele><time>2026-03-31T15:57:10Z</time></trkpt><trkpt lat="-34.10610173457437" lon="-71.96115273112535"><ele>63.0</ele><time>2026-03-31T15:57:15Z</time></trkpt><trkpt lat="-34.10603719000575" lon="-71.96118897099784"><ele>63.0</ele><time>2026-03-31T15:57:20Z</time></trkpt><trkpt lat="-34.10597188846704" lon="-71.96121402363542"><ele>63.0</ele><time>2026-03-31T15:57:25Z</time></trkpt><trkpt lat="-34.105898784565376" lon="-71.96122656528303"><ele>63.0</ele><time>2026-03-31T15:57:31Z</time></trkpt><trkpt lat="-34.10582884549228" lon="-71.96123897929922"><ele>63.0</ele><time>2026-03-31T15:57:36Z</time></trkpt><trkpt lat="-34.10576499388894" lon="-71.96124023374773"><ele>63.0</ele><time>2026-03-31T15:57:41Z</time></trkpt><trkpt lat="-34.10569269535184" lon="-71.96125145638312"><ele>63.0</ele><time>2026-03-31T15:57:48Z</time></trkpt><trkpt lat="-34.10562343228302" lon="-71.96125460188402"><ele>63.0</ele><time>2026-03-31T15:57:52Z</time></trkpt><trkpt lat="-34.10554896594292" lon="-71.96126352524364"><ele>63.0</ele><time>2026-03-31T15:57:57Z</time></trkpt><trkpt lat="-34.105482005683754" lon="-71.96125814876227"><ele>63.0</ele><time>2026-03-31T15:58:02Z</time></trkpt><trkpt lat="-34.105410389302364" lon="-71.96126478483589"><ele>63.57142857142857</ele><time>2026-03-31T15:58:07Z</time></trkpt><trkpt lat="-34.10534166551474" lon="-71.9612924410083"><ele>64.14285714285714</ele><time>2026-03-31T15:58:12Z</time></trkpt><trkpt lat="-34.10526966598746" lon="-71.96131146835965"><ele>64.71428571428572</ele><time>2026-03-31T15:58:17Z</time></trkpt><trkpt lat="-34.105202377398854" lon="-71.9613362364487"><ele>65.28571428571428</ele><time>2026-03-31T15:58:22Z</time></trkpt><trkpt lat="-34.10513868875899" lon="-71.96135747342653"><ele>65.85714285714286</ele><time>2026-03-31T15:58:27Z</time></trkpt><trkpt lat="-34.105076158928" lon="-71.96137942696613"><ele>66.42857142857143</ele><time>2026-03-31T15:58:32Z</time></trkpt><trkpt lat="-34.10501458291079" lon="-71.96139654546938"><ele>67.0</ele><time>2026-03-31T15:58:37Z</time></trkpt><trkpt lat="-34.104948649116885" lon="-71.96141585717042"><ele>68.14285714285714</ele><time>2026-03-31T15:58:42Z</time></trkpt><trkpt lat="-34.10488482259509" lon="-71.96146060058784"><ele>69.28571428571428</ele><time>2026-03-31T15:58:47Z</time></trkpt><trkpt lat="-34.10481882675127" lon="-71.961492797166"><ele>70.42857142857142</ele><time>2026-03-31T15:58:52Z</time></trkpt><trkpt lat="-34.1047496540249" lon="-71.96149028120826"><ele>71.57142857142857</ele><time>2026-03-31T15:58:57Z</time></trkpt><trkpt lat="-34.104685108753614" lon="-71.96148491864341"><ele>72.71428571428571</ele><time>2026-03-31T15:59:03Z</time></trkpt><trkpt lat="-34.104617145889506" lon="-71.96146380053264"><ele>73.85714285714285</ele><time>2026-03-31T15:59:09Z</time></trkpt><trkpt lat="-34.10455378632037" lon="-71.96145059027343"><ele>75.0</ele><time>2026-03-31T15:59:14Z</time></trkpt><trkpt lat="-34.104487761905084" lon="-71.96143395402397"><ele>74.99999999999999</ele><time>2026-03-31T15:59:19Z</time></trkpt><trkpt lat="-34.10442422421926" lon="-71.96141106767263"><ele>75.0</ele><time>2026-03-31T15:59:24Z</time></trkpt><trkpt lat="-34.104352778388765" lon="-71.96139352160984"><ele>75.0</ele><time>2026-03-31T15:59:28Z</time></trkpt><trkpt lat="-34.10428067394176" lon="-71.9613577885639"><ele>75.0</ele><time>2026-03-31T15:59:34Z</time></trkpt><trkpt lat="-34.10422129987382" lon="-71.96132127987322"><ele>75.0</ele><time>2026-03-31T15:59:39Z</time></trkpt><trkpt lat="-34.10416268123218" lon="-71.96128004918586"><ele>74.99999999999999</ele><time>2026-03-31T15:59:44Z</time></trkpt><trkpt lat="-34.10410349267628" lon="-71.96124740394441"><ele>75.0</ele><time>2026-03-31T15:59:49Z</time></trkpt><trkpt lat="-34.10403626877336" lon="-71.96121919265427"><ele>75.57142857142857</ele><time>2026-03-31T15:59:54Z</time></trkpt><trkpt lat="-34.10397668934225" lon="-71.96117058594645"><ele>76.14285714285714</ele><time>2026-03-31T15:59:59Z</time></trkpt><trkpt lat="-34.1039195109171" lon="-71.96112456434551"><ele>76.71428571428572</ele><time>2026-03-31T16:00:04Z</time></trkpt><trkpt lat="-34.10385921106867" lon="-71.9610828073077"><ele>77.28571428571428</ele><time>2026-03-31T16:00:09Z</time></trkpt><trkpt lat="-34.10381012871357" lon="-71.96102358420806"><ele>77.85714285714286</ele><time>2026-03-31T16:00:14Z</time></trkpt><trkpt lat="-34.103773560270334" lon="-71.9609462112911"><ele>78.42857142857143</ele><time>2026-03-31T16:00:19Z</time></trkpt><trkpt lat="-34.10375060881273" lon="-71.96086519263264"><ele>79.0</ele><time>2026-03-31T16:00:24Z</time></trkpt><trkpt lat="-34.10376159036653" lon="-71.96078536517803"><ele>79.00000000000001</ele><time>2026-03-31T16:00:28Z</time></trkpt><trkpt lat="-34.1037459646793" lon="-71.96070017066135"><ele>79.0</ele><time>2026-03-31T16:00:33Z</time></trkpt><trkpt lat="-34.10371290500255" lon="-71.96062230902841"><ele>79.0</ele><time>2026-03-31T16:00:38Z</time></trkpt><trkpt lat="-34.10366935225244" lon="-71.96055498697285"><ele>79.0</ele><time>2026-03-31T16:00:43Z</time></trkpt><trkpt lat="-34.10361792741206" lon="-71.96049404664024"><ele>79.0</ele><time>2026-03-31T16:00:48Z</time></trkpt><trkpt lat="-34.10356954224488" lon="-71.96043339831387"><ele>79.00000000000001</ele><time>2026-03-31T16:00:53Z</time></trkpt><trkpt lat="-34.103514266897605" lon="-71.96037268565354"><ele>79.0</ele><time>2026-03-31T16:00:58Z</time></trkpt><trkpt lat="-34.10345991078613" lon="-71.96031335998269"><ele>79.00000000000001</ele><time>2026-03-31T16:01:03Z</time></trkpt><trkpt lat="-34.103406108374514" lon="-71.9602576377665"><ele>79.0</ele><time>2026-03-31T16:01:08Z</time></trkpt><trkpt lat="-34.103343474661585" lon="-71.96021052778077"><ele>79.0</ele><time>2026-03-31T16:01:13Z</time></trkpt><trkpt lat="-34.103284354368256" lon="-71.96016619667965"><ele>79.0</ele><time>2026-03-31T16:01:18Z</time></trkpt><trkpt lat="-34.10321935792634" lon="-71.96012328078837"><ele>79.0</ele><time>2026-03-31T16:01:23Z</time></trkpt><trkpt lat="-34.10315999813856" lon="-71.96007291579792"><ele>79.00000000000001</ele><time>2026-03-31T16:01:28Z</time></trkpt><trkpt lat="-34.10309525075125" lon="-71.96005046619169"><ele>79.0</ele><time>2026-03-31T16:01:33Z</time></trkpt><trkpt lat="-34.10304130747644" lon="-71.95999919622862"><ele>80.14285714285715</ele><time>2026-03-31T16:01:38Z</time></trkpt><trkpt lat="-34.10299194212329" lon="-71.95995037330988"><ele>81.28571428571429</ele><time>2026-03-31T16:01:43Z</time></trkpt><trkpt lat="-34.102941634897746" lon="-71.959893731837"><ele>82.42857142857143</ele><time>2026-03-31T16:01:48Z</time></trkpt><trkpt lat="-34.10289588846516" lon="-71.9598228766359"><ele>83.57142857142858</ele><time>2026-03-31T16:01:54Z</time></trkpt><trkpt lat="-34.102856213421184" lon="-71.95976053330429"><ele>84.71428571428572</ele><time>2026-03-31T16:01:59Z</time></trkpt><trkpt lat="-34.10282878801477" lon="-71.95968407901992"><ele>85.85714285714286</ele><time>2026-03-31T16:02:04Z</time></trkpt><trkpt lat="-34.10281465558712" lon="-71.9596092549499"><ele>87.0</ele><time>2026-03-31T16:02:09Z</time></trkpt><trkpt lat="-34.1028075652719" lon="-71.95952563474938"><ele>87.0</ele><time>2026-03-31T16:02:14Z</time></trkpt><trkpt lat="-34.10280721897392" lon="-71.95944848510442"><ele>87.0</ele><time>2026-03-31T16:02:19Z</time></trkpt><trkpt lat="-34.102816903030885" lon="-71.95936126454812"><ele>87.0</ele><time>2026-03-31T16:02:24Z</time></trkpt><trkpt lat="-34.102826077774615" lon="-71.95927731834114"><ele>87.0</ele><time>2026-03-31T16:02:29Z</time></trkpt><trkpt lat="-34.10283805674128" lon="-71.95919824539178"><ele>87.0</ele><time>2026-03-31T16:02:34Z</time></trkpt><trkpt lat="-34.10286539470365" lon="-71.95912412505929"><ele>87.0</ele><time>2026-03-31T16:02:39Z</time></trkpt><trkpt lat="-34.10288810116942" lon="-71.95905060193249"><ele>87.0</ele><time>2026-03-31T16:02:44Z</time></trkpt><trkpt lat="-34.10289419888461" lon="-71.95896886906237"><ele>86.28571428571428</ele><time>2026-03-31T16:02:49Z</time></trkpt><trkpt lat="-34.10288781188324" lon="-71.95888706447612"><ele>85.57142857142857</ele><time>2026-03-31T16:02:54Z</time></trkpt><trkpt lat="-34.10285883405864" lon="-71.95881326157341"><ele>84.85714285714286</ele><time>2026-03-31T16:02:59Z</time></trkpt><trkpt lat="-34.102817447316916" lon="-71.95875086131144"><ele>84.14285714285714</ele><time>2026-03-31T16:03:04Z</time></trkpt><trkpt lat="-34.102770355588284" lon="-71.95869387734943"><ele>83.42857142857143</ele><time>2026-03-31T16:03:09Z</time></trkpt><trkpt lat="-34.102714583757674" lon="-71.95865148512074"><ele>82.71428571428571</ele><time>2026-03-31T16:03:14Z</time></trkpt><trkpt lat="-34.10264730459609" lon="-71.95862264279435"><ele>82.0</ele><time>2026-03-31T16:03:19Z</time></trkpt><trkpt lat="-34.102578921039175" lon="-71.95860601111606"><ele>81.99999999999999</ele><time>2026-03-31T16:03:25Z</time></trkpt><trkpt lat="-34.102510080606606" lon="-71.95860153070691"><ele>82.0</ele><time>2026-03-31T16:03:30Z</time></trkpt><trkpt lat="-34.102435732344894" lon="-71.95859973708477"><ele>82.0</ele><time>2026-03-31T16:03:35Z</time></trkpt><trkpt lat="-34.10236501063552" lon="-71.95858318691455"><ele>82.0</ele><time>2026-03-31T16:03:40Z</time></trkpt><trkpt lat="-34.102299726118716" lon="-71.95857329523771"><ele>82.0</ele><time>2026-03-31T16:03:45Z</time></trkpt><trkpt lat="-34.102237046797605" lon="-71.95855014229824"><ele>81.99999999999999</ele><time>2026-03-31T16:03:50Z</time></trkpt><trkpt lat="-34.10217158762702" lon="-71.95852157426832"><ele>82.0</ele><time>2026-03-31T16:03:55Z</time></trkpt><trkpt lat="-34.10210365774813" lon="-71.95848816925039"><ele>82.16666666666666</ele><time>2026-03-31T16:04:00Z</time></trkpt><trkpt lat="-34.10203838708788" lon="-71.95846577386689"><ele>82.33333333333333</ele><time>2026-03-31T16:04:05Z</time></trkpt><trkpt lat="-34.10197420542191" lon="-71.95843122131475"><ele>82.5</ele><time>2026-03-31T16:04:10Z</time></trkpt><trkpt lat="-34.101914422175746" lon="-71.95840143993051"><ele>82.66666666666667</ele><time>2026-03-31T16:04:15Z</time></trkpt><trkpt lat="-34.10180361074234" lon="-71.95835033154955"><ele>82.83333333333334</ele><time>2026-03-31T16:04:21Z</time></trkpt><trkpt lat="-34.10175666753897" lon="-71.9582952987036"><ele>83.0</ele><time>2026-03-31T16:04:27Z</time></trkpt><trkpt lat="-34.101685656108224" lon="-71.95826037371936"><ele>83.0</ele><time>2026-03-31T16:04:33Z</time></trkpt><trkpt lat="-34.1016317571392" lon="-71.95820997534108"><ele>83.0</ele><time>2026-03-31T16:04:38Z</time></trkpt><trkpt lat="-34.10157456501151" lon="-71.95815462710566"><ele>83.0</ele><time>2026-03-31T16:04:43Z</time></trkpt><trkpt lat="-34.1015190866829" lon="-71.95810161967148"><ele>83.0</ele><time>2026-03-31T16:04:48Z</time></trkpt><trkpt lat="-34.10147542830955" lon="-71.95802417659036"><ele>83.0</ele><time>2026-03-31T16:04:54Z</time></trkpt><trkpt lat="-34.10143643858232" lon="-71.95796074769"><ele>83.0</ele><time>2026-03-31T16:04:59Z</time></trkpt><trkpt lat="-34.10139773100972" lon="-71.95789695640325"><ele>83.0</ele><time>2026-03-31T16:05:04Z</time></trkpt><trkpt lat="-34.10136429201283" lon="-71.95782734566166"><ele>83.57142857142857</ele><time>2026-03-31T16:05:09Z</time></trkpt><trkpt lat="-34.10133519269822" lon="-71.95775035810291"><ele>84.14285714285715</ele><time>2026-03-31T16:05:15Z</time></trkpt><trkpt lat="-34.10129478290979" lon="-71.95768395835465"><ele>84.71428571428572</ele><time>2026-03-31T16:05:19Z</time></trkpt><trkpt lat="-34.101270396178755" lon="-71.95760628670659"><ele>85.28571428571428</ele><time>2026-03-31T16:05:24Z</time></trkpt><trkpt lat="-34.10124980165245" lon="-71.95752556545737"><ele>85.85714285714286</ele><time>2026-03-31T16:05:30Z</time></trkpt><trkpt lat="-34.10121667168773" lon="-71.9574575180494"><ele>86.42857142857143</ele><time>2026-03-31T16:05:35Z</time></trkpt><trkpt lat="-34.10121338326702" lon="-71.95736901156013"><ele>87.0</ele><time>2026-03-31T16:05:40Z</time></trkpt><trkpt lat="-34.101184620879955" lon="-71.95728887152688"><ele>87.0</ele><time>2026-03-31T16:05:45Z</time></trkpt><trkpt lat="-34.101141346943756" lon="-71.9572276656364"><ele>87.0</ele><time>2026-03-31T16:05:50Z</time></trkpt><trkpt lat="-34.10110113575445" lon="-71.95714732812013"><ele>87.0</ele><time>2026-03-31T16:05:55Z</time></trkpt><trkpt lat="-34.1010333675135" lon="-71.95712729326048"><ele>87.0</ele><time>2026-03-31T16:05:59Z</time></trkpt><trkpt lat="-34.10097471427786" lon="-71.95708783323643"><ele>87.0</ele><time>2026-03-31T16:06:05Z</time></trkpt><trkpt lat="-34.100921116994364" lon="-71.95704226491877"><ele>87.0</ele><time>2026-03-31T16:06:10Z</time></trkpt><trkpt lat="-34.10084423326875" lon="-71.95698502363663"><ele>87.0</ele><time>2026-03-31T16:06:15Z</time></trkpt><trkpt lat="-34.100798242883506" lon="-71.95693268779279"><ele>87.28571428571428</ele><time>2026-03-31T16:06:21Z</time></trkpt><trkpt lat="-34.10073940500894" lon="-71.95688451648704"><ele>87.57142857142857</ele><time>2026-03-31T16:06:26Z</time></trkpt><trkpt lat="-34.10067680369191" lon="-71.95685631452733"><ele>87.85714285714286</ele><time>2026-03-31T16:06:31Z</time></trkpt><trkpt lat="-34.10063088308047" lon="-71.95678152636609"><ele>88.14285714285714</ele><time>2026-03-31T16:06:38Z</time></trkpt><trkpt lat="-34.10057540838895" lon="-71.95674082554245"><ele>88.42857142857143</ele><time>2026-03-31T16:06:42Z</time></trkpt><trkpt lat="-34.1005296122698" lon="-71.95668114218199"><ele>88.71428571428571</ele><time>2026-03-31T16:06:48Z</time></trkpt><trkpt lat="-34.100457732215" lon="-71.95667548855363"><ele>89.0</ele><time>2026-03-31T16:06:52Z</time></trkpt><trkpt lat="-34.10037783017512" lon="-71.95667098064236"><ele>88.99999999999999</ele><time>2026-03-31T16:06:58Z</time></trkpt><trkpt lat="-34.10030385782992" lon="-71.95665438423926"><ele>89.0</ele><time>2026-03-31T16:07:02Z</time></trkpt><trkpt lat="-34.10025157795648" lon="-71.95661073949239"><ele>89.0</ele><time>2026-03-31T16:07:07Z</time></trkpt><trkpt lat="-34.100185940668794" lon="-71.95659754189919"><ele>89.0</ele><time>2026-03-31T16:07:13Z</time></trkpt><trkpt lat="-34.10012035648329" lon="-71.95656879074846"><ele>89.0</ele><time>2026-03-31T16:07:19Z</time></trkpt><trkpt lat="-34.100054965847086" lon="-71.9565626824424"><ele>88.99999999999999</ele><time>2026-03-31T16:07:21Z</time></trkpt><trkpt lat="-34.09998600512179" lon="-71.95655187621999"><ele>89.0</ele><time>2026-03-31T16:07:28Z</time></trkpt><trkpt lat="-34.09992821766639" lon="-71.9565206930496"><ele>90.28571428571428</ele><time>2026-03-31T16:07:33Z</time></trkpt><trkpt lat="-34.09985942843441" lon="-71.95651328004506"><ele>91.57142857142857</ele><time>2026-03-31T16:07:38Z</time></trkpt><trkpt lat="-34.09979805300076" lon="-71.9565352839626"><ele>92.85714285714286</ele><time>2026-03-31T16:07:43Z</time></trkpt><trkpt lat="-34.09972200604933" lon="-71.9565491473569"><ele>94.14285714285714</ele><time>2026-03-31T16:07:48Z</time></trkpt><trkpt lat="-34.0996564011597" lon="-71.95657766499754"><ele>95.42857142857143</ele><time>2026-03-31T16:07:54Z</time></trkpt><trkpt lat="-34.09958736964485" lon="-71.956606807818"><ele>96.71428571428571</ele><time>2026-03-31T16:08:00Z</time></trkpt><trkpt lat="-34.099521910081364" lon="-71.9566250314729"><ele>98.0</ele><time>2026-03-31T16:08:06Z</time></trkpt><trkpt lat="-34.099465331623136" lon="-71.95665979654879"><ele>98.0</ele><time>2026-03-31T16:08:11Z</time></trkpt><trkpt lat="-34.099402253748146" lon="-71.9567024017801"><ele>98.0</ele><time>2026-03-31T16:08:17Z</time></trkpt><trkpt lat="-34.09933857123429" lon="-71.95675701282812"><ele>98.0</ele><time>2026-03-31T16:08:23Z</time></trkpt><trkpt lat="-34.099278303044265" lon="-71.9567906603658"><ele>98.0</ele><time>2026-03-31T16:08:29Z</time></trkpt><trkpt lat="-34.099210657038064" lon="-71.95682427815697"><ele>98.0</ele><time>2026-03-31T16:08:36Z</time></trkpt><trkpt lat="-34.099146159906944" lon="-71.95682772674947"><ele>98.0</ele><time>2026-03-31T16:08:40Z</time></trkpt><trkpt lat="-34.09908096902546" lon="-71.95684975039391"><ele>98.0</ele><time>2026-03-31T16:08:45Z</time></trkpt><trkpt lat="-34.09901153801325" lon="-71.95686061081923"><ele>99.99999999999999</ele><time>2026-03-31T16:08:51Z</time></trkpt><trkpt lat="-34.09894397427863" lon="-71.9568659799924"><ele>102.0</ele><time>2026-03-31T16:08:56Z</time></trkpt><trkpt lat="-34.09886642432646" lon="-71.95687866578163"><ele>104.0</ele><time>2026-03-31T16:09:03Z</time></trkpt><trkpt lat="-34.09880326704994" lon="-71.95688570863341"><ele>106.0</ele><time>2026-03-31T16:09:08Z</time></trkpt><trkpt lat="-34.09872103578868" lon="-71.9568923733682"><ele>107.99999999999999</ele><time>2026-03-31T16:09:14Z</time></trkpt><trkpt lat="-34.09863804205495" lon="-71.95688464901947"><ele>110.0</ele><time>2026-03-31T16:09:19Z</time></trkpt><trkpt lat="-34.098544596689436" lon="-71.95685274385302"><ele>109.99999999999999</ele><time>2026-03-31T16:09:26Z</time></trkpt><trkpt lat="-34.09844658393623" lon="-71.95683952685208"><ele>110.0</ele><time>2026-03-31T16:09:34Z</time></trkpt><trkpt lat="-34.098382163542844" lon="-71.9568225538527"><ele>110.0</ele><time>2026-03-31T16:09:40Z</time></trkpt><trkpt lat="-34.098309184731974" lon="-71.95680762594655"><ele>110.0</ele><time>2026-03-31T16:09:46Z</time></trkpt><trkpt lat="-34.098246070656536" lon="-71.95680157451099"><ele>110.0</ele><time>2026-03-31T16:09:51Z</time></trkpt><trkpt lat="-34.098182423212684" lon="-71.95679584442479"><ele>109.99999999999999</ele><time>2026-03-31T16:09:56Z</time></trkpt><trkpt lat="-34.09811250928307" lon="-71.95678894514266"><ele>110.0</ele><time>2026-03-31T16:10:02Z</time></trkpt><trkpt lat="-34.098048289529125" lon="-71.95677575818208"><ele>111.28571428571428</ele><time>2026-03-31T16:10:07Z</time></trkpt><trkpt lat="-34.0979791498173" lon="-71.95676771207212"><ele>112.57142857142857</ele><time>2026-03-31T16:10:12Z</time></trkpt><trkpt lat="-34.09791469858443" lon="-71.95676926093215"><ele>113.85714285714286</ele><time>2026-03-31T16:10:17Z</time></trkpt><trkpt lat="-34.097848512682155" lon="-71.95675154093425"><ele>115.14285714285714</ele><time>2026-03-31T16:10:22Z</time></trkpt><trkpt lat="-34.09777653784667" lon="-71.9567521068148"><ele>116.42857142857143</ele><time>2026-03-31T16:10:28Z</time></trkpt><trkpt lat="-34.09770056784847" lon="-71.95674511430894"><ele>117.71428571428571</ele><time>2026-03-31T16:10:34Z</time></trkpt><trkpt lat="-34.097612755038476" lon="-71.9567472536644"><ele>119.0</ele><time>2026-03-31T16:10:39Z</time></trkpt><trkpt lat="-34.09754602306538" lon="-71.95675679215094"><ele>119.0</ele><time>2026-03-31T16:10:45Z</time></trkpt><trkpt lat="-34.09748211194273" lon="-71.95675597945947"><ele>119.0</ele><time>2026-03-31T16:10:50Z</time></trkpt><trkpt lat="-34.09741487718034" lon="-71.95677259579938"><ele>119.0</ele><time>2026-03-31T16:10:55Z</time></trkpt><trkpt lat="-34.097353923549626" lon="-71.95679216539605"><ele>119.0</ele><time>2026-03-31T16:11:00Z</time></trkpt><trkpt lat="-34.09728201302963" lon="-71.9568146013836"><ele>119.0</ele><time>2026-03-31T16:11:06Z</time></trkpt><trkpt lat="-34.09722121968458" lon="-71.95683829398013"><ele>119.0</ele><time>2026-03-31T16:11:11Z</time></trkpt><trkpt lat="-34.097152499740695" lon="-71.95688049717543"><ele>119.0</ele><time>2026-03-31T16:11:17Z</time></trkpt><trkpt lat="-34.09709710896546" lon="-71.95693194560879"><ele>120.28571428571428</ele><time>2026-03-31T16:11:22Z</time></trkpt><trkpt lat="-34.09702883315859" lon="-71.95694028071158"><ele>121.57142857142857</ele><time>2026-03-31T16:11:28Z</time></trkpt><trkpt lat="-34.0969606924541" lon="-71.95696606449559"><ele>122.85714285714286</ele><time>2026-03-31T16:11:34Z</time></trkpt><trkpt lat="-34.09690505837069" lon="-71.95700276519668"><ele>124.14285714285714</ele><time>2026-03-31T16:11:39Z</time></trkpt><trkpt lat="-34.096840134881894" lon="-71.9570338875296"><ele>125.42857142857142</ele><time>2026-03-31T16:11:45Z</time></trkpt><trkpt lat="-34.09676619257936" lon="-71.95704668820478"><ele>126.71428571428571</ele><time>2026-03-31T16:11:50Z</time></trkpt><trkpt lat="-34.09669599994319" lon="-71.9570591261902"><ele>128.0</ele><time>2026-03-31T16:11:55Z</time></trkpt><trkpt lat="-34.09660867131256" lon="-71.95706516535168"><ele>129.14285714285714</ele><time>2026-03-31T16:12:02Z</time></trkpt><trkpt lat="-34.0965458547" lon="-71.95701910656265"><ele>130.28571428571428</ele><time>2026-03-31T16:12:07Z</time></trkpt><trkpt lat="-34.09648679686336" lon="-71.95699197493303"><ele>131.42857142857142</ele><time>2026-03-31T16:12:12Z</time></trkpt><trkpt lat="-34.096435847947504" lon="-71.95694612953763"><ele>132.57142857142856</ele><time>2026-03-31T16:12:16Z</time></trkpt><trkpt lat="-34.09638612421875" lon="-71.9568926767878"><ele>133.71428571428572</ele><time>2026-03-31T16:12:21Z</time></trkpt><trkpt lat="-34.0963250884604" lon="-71.95687189993362"><ele>134.85714285714283</ele><time>2026-03-31T16:12:25Z</time></trkpt><trkpt lat="-34.09628175326073" lon="-71.9567906000908"><ele>136.0</ele><time>2026-03-31T16:12:30Z</time></trkpt><trkpt lat="-34.096235877885746" lon="-71.95673006370241"><ele>133.14285714285714</ele><time>2026-03-31T16:12:35Z</time></trkpt><trkpt lat="-34.096174536687414" lon="-71.95668700251886"><ele>130.28571428571428</ele><time>2026-03-31T16:12:40Z</time></trkpt><trkpt lat="-34.09612902929886" lon="-71.95661476086077"><ele>127.42857142857143</ele><time>2026-03-31T16:12:47Z</time></trkpt><trkpt lat="-34.09607718992263" lon="-71.95655306272317"><ele>124.57142857142857</ele><time>2026-03-31T16:12:52Z</time></trkpt><trkpt lat="-34.09603247215762" lon="-71.95648299159623"><ele>121.71428571428572</ele><time>2026-03-31T16:12:57Z</time></trkpt><trkpt lat="-34.095983912964606" lon="-71.9564246481856"><ele>118.85714285714288</ele><time>2026-03-31T16:13:02Z</time></trkpt><trkpt lat="-34.09596507573455" lon="-71.95633608070872"><ele>116.00000000000001</ele><time>2026-03-31T16:13:07Z</time></trkpt><trkpt lat="-34.09591544870847" lon="-71.95626858817701"><ele>116.00000000000001</ele><time>2026-03-31T16:13:13Z</time></trkpt><trkpt lat="-34.095849936366434" lon="-71.95623560661193"><ele>116.0</ele><time>2026-03-31T16:13:18Z</time></trkpt><trkpt lat="-34.09579005628544" lon="-71.95620577188556"><ele>116.00000000000001</ele><time>2026-03-31T16:13:23Z</time></trkpt><trkpt lat="-34.09572639462119" lon="-71.95619751432783"><ele>116.00000000000001</ele><time>2026-03-31T16:13:29Z</time></trkpt><trkpt lat="-34.095664780850704" lon="-71.9561740239503"><ele>116.0</ele><time>2026-03-31T16:13:33Z</time></trkpt><trkpt lat="-34.095604313462594" lon="-71.95615110451647"><ele>116.00000000000001</ele><time>2026-03-31T16:13:37Z</time></trkpt><trkpt lat="-34.0955183962173" lon="-71.95611436776483"><ele>116.00000000000001</ele><time>2026-03-31T16:13:43Z</time></trkpt><trkpt lat="-34.09545951485915" lon="-71.95607919132064"><ele>118.00000000000001</ele><time>2026-03-31T16:13:48Z</time></trkpt><trkpt lat="-34.095389130324605" lon="-71.95605205517397"><ele>120.0</ele><time>2026-03-31T16:13:54Z</time></trkpt><trkpt lat="-34.09531893883152" lon="-71.95602957862113"><ele>122.00000000000001</ele><time>2026-03-31T16:13:59Z</time></trkpt><trkpt lat="-34.09526096193226" lon="-71.95596921370938"><ele>124.00000000000001</ele><time>2026-03-31T16:14:08Z</time></trkpt><trkpt lat="-34.09519533380922" lon="-71.95594049032735"><ele>126.0</ele><time>2026-03-31T16:14:12Z</time></trkpt><trkpt lat="-34.095127724323184" lon="-71.955922906194"><ele>128.00000000000003</ele><time>2026-03-31T16:14:17Z</time></trkpt><trkpt lat="-34.09506370575266" lon="-71.95590853575264"><ele>130.0</ele><time>2026-03-31T16:14:22Z</time></trkpt><trkpt lat="-34.095000786418716" lon="-71.95590095791384"><ele>129.0</ele><time>2026-03-31T16:14:26Z</time></trkpt><trkpt lat="-34.09494412323166" lon="-71.95586681072514"><ele>128.0</ele><time>2026-03-31T16:14:31Z</time></trkpt><trkpt lat="-34.094892292900816" lon="-71.95581544299394"><ele>127.0</ele><time>2026-03-31T16:14:36Z</time></trkpt><trkpt lat="-34.094828631175325" lon="-71.95576446551603"><ele>126.0</ele><time>2026-03-31T16:14:41Z</time></trkpt><trkpt lat="-34.09473925364104" lon="-71.95570419607463"><ele>125.00000000000001</ele><time>2026-03-31T16:14:47Z</time></trkpt><trkpt lat="-34.09467171935364" lon="-71.95565902737897"><ele>124.0</ele><time>2026-03-31T16:14:53Z</time></trkpt><trkpt lat="-34.09459913333261" lon="-71.95561521157174"><ele>124.0</ele><time>2026-03-31T16:15:02Z</time></trkpt><trkpt lat="-34.09453443391778" lon="-71.9555896345987"><ele>124.00000000000001</ele><time>2026-03-31T16:15:07Z</time></trkpt><trkpt lat="-34.09446565519911" lon="-71.95559297517562"><ele>124.0</ele><time>2026-03-31T16:15:12Z</time></trkpt><trkpt lat="-34.09439663598625" lon="-71.95557211142884"><ele>124.0</ele><time>2026-03-31T16:15:18Z</time></trkpt><trkpt lat="-34.09433431764809" lon="-71.9555550186567"><ele>124.00000000000001</ele><time>2026-03-31T16:15:25Z</time></trkpt><trkpt lat="-34.09425280736244" lon="-71.95556861539148"><ele>124.0</ele><time>2026-03-31T16:15:29Z</time></trkpt><trkpt lat="-34.094196521072675" lon="-71.95560707791152"><ele>124.0</ele><time>2026-03-31T16:15:35Z</time></trkpt><trkpt lat="-34.09412868640011" lon="-71.95559845815781"><ele>123.85714285714286</ele><time>2026-03-31T16:15:41Z</time></trkpt><trkpt lat="-34.094066284748145" lon="-71.95557142192634"><ele>123.71428571428572</ele><time>2026-03-31T16:15:46Z</time></trkpt><trkpt lat="-34.09400042383646" lon="-71.95553970625687"><ele>123.57142857142858</ele><time>2026-03-31T16:15:53Z</time></trkpt><trkpt lat="-34.093931270148126" lon="-71.95552757360973"><ele>123.42857142857144</ele><time>2026-03-31T16:15:58Z</time></trkpt><trkpt lat="-34.09385995394948" lon="-71.95552208840773"><ele>123.28571428571429</ele><time>2026-03-31T16:16:04Z</time></trkpt><trkpt lat="-34.09380039496807" lon="-71.9555765600054"><ele>123.14285714285717</ele><time>2026-03-31T16:16:12Z</time></trkpt><trkpt lat="-34.09373639234871" lon="-71.95563168094236"><ele>123.00000000000001</ele><time>2026-03-31T16:16:30Z</time></trkpt><trkpt lat="-34.093670292606944" lon="-71.95562563230636"><ele>123.00000000000001</ele><time>2026-03-31T16:16:37Z</time></trkpt><trkpt lat="-34.09362501996876" lon="-71.95555617762916"><ele>123.0</ele><time>2026-03-31T16:16:47Z</time></trkpt><trkpt lat="-34.09358908730859" lon="-71.95548308986781"><ele>123.00000000000001</ele><time>2026-03-31T16:16:56.999Z</time></trkpt><trkpt lat="-34.09358411310304" lon="-71.95538538561591"><ele>123.00000000000001</ele><time>2026-03-31T16:17:04.999Z</time></trkpt><trkpt lat="-34.093570776461746" lon="-71.9552983718909"><ele>123.0</ele><time>2026-03-31T16:17:12.999Z</time></trkpt><trkpt lat="-34.09358716552027" lon="-71.95521611174789"><ele>123.00000000000001</ele><time>2026-03-31T16:17:23.999Z</time></trkpt><trkpt lat="-34.093600878310944" lon="-71.95513804277975"><ele>123.00000000000001</ele><time>2026-03-31T16:17:27.999Z</time></trkpt><trkpt lat="-34.093600118314754" lon="-71.95504545185018"><ele>122.57142857142858</ele><time>2026-03-31T16:17:39.999Z</time></trkpt><trkpt lat="-34.093607423262945" lon="-71.9549692498463"><ele>122.14285714285714</ele><time>2026-03-31T16:17:44.999Z</time></trkpt><trkpt lat="-34.0936598937652" lon="-71.95491724114835"><ele>121.71428571428572</ele><time>2026-03-31T16:17:49.999Z</time></trkpt><trkpt lat="-34.09370283307777" lon="-71.9548595247991"><ele>121.28571428571429</ele><time>2026-03-31T16:17:55.999Z</time></trkpt><trkpt lat="-34.09375044701577" lon="-71.95479452557596"><ele>120.85714285714286</ele><time>2026-03-31T16:18:03.999Z</time></trkpt><trkpt lat="-34.093781651427705" lon="-71.95471430094344"><ele>120.42857142857143</ele><time>2026-03-31T16:18:10.999Z</time></trkpt><trkpt lat="-34.093776338193365" lon="-71.95463764819115"><ele>120.0</ele><time>2026-03-31T16:18:17.999Z</time></trkpt><trkpt lat="-34.093782283466254" lon="-71.95455649779201"><ele>120.0</ele><time>2026-03-31T16:18:25Z</time></trkpt><trkpt lat="-34.093794649587394" lon="-71.95445691049069"><ele>120.0</ele><time>2026-03-31T16:18:33Z</time></trkpt><trkpt lat="-34.09382222138612" lon="-71.95437744744063"><ele>120.0</ele><time>2026-03-31T16:18:41Z</time></trkpt><trkpt lat="-34.093836750602506" lon="-71.95429253321582"><ele>120.0</ele><time>2026-03-31T16:18:48Z</time></trkpt><trkpt lat="-34.09385099375641" lon="-71.95421633163029"><ele>120.0</ele><time>2026-03-31T16:18:55Z</time></trkpt><trkpt lat="-34.0938576537423" lon="-71.95412809354012"><ele>120.0</ele><time>2026-03-31T16:19:02Z</time></trkpt><trkpt lat="-34.09387173250267" lon="-71.95404056131575"><ele>120.0</ele><time>2026-03-31T16:19:10Z</time></trkpt><trkpt lat="-34.09389117425086" lon="-71.9539595421511"><ele>120.85714285714286</ele><time>2026-03-31T16:19:17Z</time></trkpt><trkpt lat="-34.09392283993382" lon="-71.95388049678564"><ele>121.71428571428571</ele><time>2026-03-31T16:19:24Z</time></trkpt><trkpt lat="-34.09394298250062" lon="-71.95379977491353"><ele>122.57142857142857</ele><time>2026-03-31T16:19:54Z</time></trkpt><trkpt lat="-34.093951830930344" lon="-71.95371691487037"><ele>123.42857142857143</ele><time>2026-03-31T16:20:01Z</time></trkpt><trkpt lat="-34.09396796605565" lon="-71.953638562274"><ele>124.28571428571428</ele><time>2026-03-31T16:20:07Z</time></trkpt><trkpt lat="-34.09398540149471" lon="-71.95355642909173"><ele>125.14285714285714</ele><time>2026-03-31T16:20:13Z</time></trkpt><trkpt lat="-34.093984206270704" lon="-71.95347661497401"><ele>126.0</ele><time>2026-03-31T16:20:18Z</time></trkpt><trkpt lat="-34.09401488105691" lon="-71.95340766009183"><ele>127.0</ele><time>2026-03-31T16:20:24Z</time></trkpt><trkpt lat="-34.09403344821578" lon="-71.95333183323785"><ele>128.0</ele><time>2026-03-31T16:20:31Z</time></trkpt><trkpt lat="-34.09407332326805" lon="-71.95326961749346"><ele>129.0</ele><time>2026-03-31T16:20:37Z</time></trkpt><trkpt lat="-34.094111181785706" lon="-71.95319808356084"><ele>130.0</ele><time>2026-03-31T16:20:43Z</time></trkpt><trkpt lat="-34.09413889125829" lon="-71.95311814418804"><ele>131.0</ele><time>2026-03-31T16:20:49Z</time></trkpt><trkpt lat="-34.09416051408301" lon="-71.95303981196152"><ele>132.0</ele><time>2026-03-31T16:20:55Z</time></trkpt><trkpt lat="-34.09418091215668" lon="-71.95296095714082"><ele>133.0</ele><time>2026-03-31T16:21:01Z</time></trkpt><trkpt lat="-34.094199732236966" lon="-71.95288489522562"><ele>134.0</ele><time>2026-03-31T16:21:08Z</time></trkpt><trkpt lat="-34.094205963191705" lon="-71.95280179348039"><ele>135.0</ele><time>2026-03-31T16:21:14Z</time></trkpt><trkpt lat="-34.09420252512988" lon="-71.95271458973652"><ele>136.0</ele><time>2026-03-31T16:21:19Z</time></trkpt><trkpt lat="-34.09419364901347" lon="-71.95263628003939"><ele>137.0</ele><time>2026-03-31T16:21:25Z</time></trkpt><trkpt lat="-34.09420783474656" lon="-71.95253665055608"><ele>138.0</ele><time>2026-03-31T16:21:31Z</time></trkpt><trkpt lat="-34.09421520419616" lon="-71.95245732952867"><ele>139.0</ele><time>2026-03-31T16:21:37Z</time></trkpt><trkpt lat="-34.09418536793808" lon="-71.95238178914335"><ele>140.0</ele><time>2026-03-31T16:21:43Z</time></trkpt><trkpt lat="-34.094161711048656" lon="-71.95231127126245"><ele>140.14285714285714</ele><time>2026-03-31T16:21:49Z</time></trkpt><trkpt lat="-34.09411805130272" lon="-71.9522435169475"><ele>140.28571428571428</ele><time>2026-03-31T16:21:55Z</time></trkpt><trkpt lat="-34.09407889594915" lon="-71.95217568155154"><ele>140.42857142857144</ele><time>2026-03-31T16:22:01Z</time></trkpt><trkpt lat="-34.09404426823312" lon="-71.95210134113051"><ele>140.57142857142856</ele><time>2026-03-31T16:22:07Z</time></trkpt><trkpt lat="-34.093998647467714" lon="-71.95203843915043"><ele>140.71428571428572</ele><time>2026-03-31T16:22:14Z</time></trkpt><trkpt lat="-34.09397103128254" lon="-71.95196358190009"><ele>140.85714285714286</ele><time>2026-03-31T16:22:19Z</time></trkpt><trkpt lat="-34.09392688964108" lon="-71.95190769337319"><ele>141.0</ele><time>2026-03-31T16:22:25Z</time></trkpt><trkpt lat="-34.09388053704627" lon="-71.95184553730365"><ele>139.57142857142858</ele><time>2026-03-31T16:22:31Z</time></trkpt><trkpt lat="-34.09383781999286" lon="-71.95178734572212"><ele>138.14285714285714</ele><time>2026-03-31T16:22:35.999Z</time></trkpt><trkpt lat="-34.09377815460892" lon="-71.95173105783786"><ele>136.71428571428572</ele><time>2026-03-31T16:22:42.999Z</time></trkpt><trkpt lat="-34.09373108935923" lon="-71.9516796052283"><ele>135.28571428571428</ele><time>2026-03-31T16:22:47.999Z</time></trkpt><trkpt lat="-34.09366409029331" lon="-71.95164104344352"><ele>133.85714285714286</ele><time>2026-03-31T16:22:53.999Z</time></trkpt><trkpt lat="-34.09362049325906" lon="-71.95157994312163"><ele>132.42857142857144</ele><time>2026-03-31T16:22:59Z</time></trkpt><trkpt lat="-34.093556407592686" lon="-71.95151859998069"><ele>131.0</ele><time>2026-03-31T16:23:06Z</time></trkpt><trkpt lat="-34.09350268014481" lon="-71.95146391467705"><ele>130.71428571428572</ele><time>2026-03-31T16:23:12Z</time></trkpt><trkpt lat="-34.093444320737085" lon="-71.95143285613328"><ele>130.42857142857144</ele><time>2026-03-31T16:23:18Z</time></trkpt><trkpt lat="-34.093378537866776" lon="-71.95138852675666"><ele>130.14285714285714</ele><time>2026-03-31T16:23:24Z</time></trkpt><trkpt lat="-34.09331914231278" lon="-71.95134768892888"><ele>129.85714285714286</ele><time>2026-03-31T16:23:30Z</time></trkpt><trkpt lat="-34.09325501912006" lon="-71.951315874252"><ele>129.57142857142856</ele><time>2026-03-31T16:23:36Z</time></trkpt><trkpt lat="-34.093196082566095" lon="-71.95126075089851"><ele>129.28571428571428</ele><time>2026-03-31T16:23:43Z</time></trkpt><trkpt lat="-34.09312371294298" lon="-71.9512501166544"><ele>129.0</ele><time>2026-03-31T16:23:48Z</time></trkpt><trkpt lat="-34.09307260794296" lon="-71.95118228755344"><ele>115.0</ele><time>2026-03-31T16:23:54Z</time></trkpt><trkpt lat="-34.093014976185394" lon="-71.95114048273722"><ele>115.0</ele><time>2026-03-31T16:24:02Z</time></trkpt><trkpt lat="-34.09297832003975" lon="-71.95107480710415"><ele>115.0</ele><time>2026-03-31T16:24:08Z</time></trkpt><trkpt lat="-34.09292654235907" lon="-71.95102519973301"><ele>115.0</ele><time>2026-03-31T16:24:15Z</time></trkpt><trkpt lat="-34.0928742245169" lon="-71.95095645182253"><ele>115.0</ele><time>2026-03-31T16:24:23Z</time></trkpt><trkpt lat="-34.092834238808344" lon="-71.95088848329182"><ele>115.0</ele><time>2026-03-31T16:24:28Z</time></trkpt></trkseg></trk></gpx>